<?xml version="1.0" encoding="UTF-8" standalone="yes"?>
<gpx version="1.1" creator="MagicMaps Tour Explorer"
     xmlns:xsi="http://www.w3.org/2001/XMLSchema-instance"
     xmlns="http://www.topografix.com/GPX/1/1">
  <trk>
    <name>Wis-Pfalz-Hag124km</name>
    <trkseg>
      <trkpt lat="49.036292440" lon="7.951869965">
        <ele>160.0</ele>
        <time>2010-12-10T00:00:00</time>
        <extensions><speed>7.64</speed></extensions>
      </trkpt>
      <trkpt lat="49.036098000" lon="7.951880000">
        <ele>160.0</ele>
        <time>2010-12-10T00:00:02</time>
        <extensions><speed>8.32</speed></extensions>
      </trkpt>
      <trkpt lat="49.036491000" lon="7.949070000">
        <ele>160.0</ele>
        <time>2010-12-10T00:00:28</time>
        <extensions><speed>8.37</speed></extensions>
      </trkpt>
      <trkpt lat="49.036381000" lon="7.949060000">
        <ele>160.0</ele>
        <time>2010-12-10T00:00:29</time>
        <extensions><speed>8.32</speed></extensions>
      </trkpt>
      <trkpt lat="49.036911000" lon="7.943000000">
        <ele>159.0</ele>
        <time>2010-12-10T00:01:24</time>
        <extensions><speed>8.33</speed></extensions>
      </trkpt>
      <trkpt lat="49.037731000" lon="7.942600000">
        <ele>159.0</ele>
        <time>2010-12-10T00:01:35</time>
        <extensions><speed>8.31</speed></extensions>
      </trkpt>
      <trkpt lat="49.038139000" lon="7.941830000">
        <ele>159.0</ele>
        <time>2010-12-10T00:01:44</time>
        <extensions><speed>4.94</speed></extensions>
      </trkpt>
      <trkpt lat="49.038280000" lon="7.940830000">
        <ele>161.0</ele>
        <time>2010-12-10T00:01:59</time>
        <extensions><speed>4.96</speed></extensions>
      </trkpt>
      <trkpt lat="49.038891000" lon="7.940200000">
        <ele>164.0</ele>
        <time>2010-12-10T00:02:16</time>
        <extensions><speed>4.95</speed></extensions>
      </trkpt>
      <trkpt lat="49.039089000" lon="7.938410000">
        <ele>164.0</ele>
        <time>2010-12-10T00:02:36</time>
        <extensions><speed>8.32</speed></extensions>
      </trkpt>
      <trkpt lat="49.039021000" lon="7.936810000">
        <ele>162.0</ele>
        <time>2010-12-10T00:02:50</time>
        <extensions><speed>7.03</speed></extensions>
      </trkpt>
      <trkpt lat="49.039841000" lon="7.936350000">
        <ele>162.0</ele>
        <time>2010-12-10T00:03:04</time>
        <extensions><speed>7.04</speed></extensions>
      </trkpt>
      <trkpt lat="49.039860000" lon="7.935420000">
        <ele>163.0</ele>
        <time>2010-12-10T00:03:15</time>
        <extensions><speed>7.04</speed></extensions>
      </trkpt>
      <trkpt lat="49.040531000" lon="7.931740000">
        <ele>167.0</ele>
        <time>2010-12-10T00:03:58</time>
        <extensions><speed>6.16</speed></extensions>
      </trkpt>
      <trkpt lat="49.040390000" lon="7.926900000">
        <ele>172.0</ele>
        <time>2010-12-10T00:04:53</time>
        <extensions><speed>7.35</speed></extensions>
      </trkpt>
      <trkpt lat="49.040230000" lon="7.926860000">
        <ele>172.0</ele>
        <time>2010-12-10T00:04:55</time>
        <extensions><speed>7.36</speed></extensions>
      </trkpt>
      <trkpt lat="49.039688000" lon="7.923870000">
        <ele>173.0</ele>
        <time>2010-12-10T00:05:25</time>
        <extensions><speed>8.32</speed></extensions>
      </trkpt>
      <trkpt lat="49.037788000" lon="7.917520000">
        <ele>172.0</ele>
        <time>2010-12-10T00:06:29</time>
        <extensions><speed>8.32</speed></extensions>
      </trkpt>
      <trkpt lat="49.037579000" lon="7.916120000">
        <ele>170.0</ele>
        <time>2010-12-10T00:06:41</time>
        <extensions><speed>8.32</speed></extensions>
      </trkpt>
      <trkpt lat="49.037491000" lon="7.913690000">
        <ele>169.0</ele>
        <time>2010-12-10T00:07:03</time>
        <extensions><speed>8.33</speed></extensions>
      </trkpt>
      <trkpt lat="49.037560000" lon="7.913140000">
        <ele>168.0</ele>
        <time>2010-12-10T00:07:08</time>
        <extensions><speed>8.32</speed></extensions>
      </trkpt>
      <trkpt lat="49.038109000" lon="7.911790000">
        <ele>166.0</ele>
        <time>2010-12-10T00:07:22</time>
        <extensions><speed>8.32</speed></extensions>
      </trkpt>
      <trkpt lat="49.039040000" lon="7.910790000">
        <ele>167.0</ele>
        <time>2010-12-10T00:07:43</time>
        <extensions><speed>4.23</speed></extensions>
      </trkpt>
      <trkpt lat="49.039280000" lon="7.909890000">
        <ele>170.0</ele>
        <time>2010-12-10T00:08:00</time>
        <extensions><speed>4.23</speed></extensions>
      </trkpt>
      <trkpt lat="49.039131000" lon="7.908440000">
        <ele>176.0</ele>
        <time>2010-12-10T00:08:25</time>
        <extensions><speed>7.65</speed></extensions>
      </trkpt>
      <trkpt lat="49.038681000" lon="7.906940000">
        <ele>176.0</ele>
        <time>2010-12-10T00:08:41</time>
        <extensions><speed>7.65</speed></extensions>
      </trkpt>
      <trkpt lat="49.038700000" lon="7.905930000">
        <ele>176.0</ele>
        <time>2010-12-10T00:08:51</time>
        <extensions><speed>7.65</speed></extensions>
      </trkpt>
      <trkpt lat="49.039909000" lon="7.903970000">
        <ele>171.0</ele>
        <time>2010-12-10T00:09:16</time>
        <extensions><speed>8.32</speed></extensions>
      </trkpt>
      <trkpt lat="49.040310000" lon="7.903400000">
        <ele>170.0</ele>
        <time>2010-12-10T00:09:24</time>
        <extensions><speed>6.07</speed></extensions>
      </trkpt>
      <trkpt lat="49.041580000" lon="7.902840000">
        <ele>172.0</ele>
        <time>2010-12-10T00:09:48</time>
        <extensions><speed>6.07</speed></extensions>
      </trkpt>
      <trkpt lat="49.042580000" lon="7.902860000">
        <ele>174.0</ele>
        <time>2010-12-10T00:10:04</time>
        <extensions><speed>8.30</speed></extensions>
      </trkpt>
      <trkpt lat="49.042820000" lon="7.903040000">
        <ele>174.0</ele>
        <time>2010-12-10T00:10:08</time>
        <extensions><speed>8.31</speed></extensions>
      </trkpt>
      <trkpt lat="49.043140000" lon="7.902870000">
        <ele>174.0</ele>
        <time>2010-12-10T00:10:12</time>
        <extensions><speed>8.32</speed></extensions>
      </trkpt>
      <trkpt lat="49.044250000" lon="7.901920000">
        <ele>174.0</ele>
        <time>2010-12-10T00:10:29</time>
        <extensions><speed>8.32</speed></extensions>
      </trkpt>
      <trkpt lat="49.045429000" lon="7.900350000">
        <ele>171.0</ele>
        <time>2010-12-10T00:10:50</time>
        <extensions><speed>8.32</speed></extensions>
      </trkpt>
      <trkpt lat="49.046021000" lon="7.896420000">
        <ele>188.0</ele>
        <time>2010-12-10T00:12:07</time>
        <extensions><speed>2.95</speed></extensions>
      </trkpt>
      <trkpt lat="49.047001000" lon="7.892310000">
        <ele>217.0</ele>
        <time>2010-12-10T00:13:54</time>
        <extensions><speed>8.32</speed></extensions>
      </trkpt>
      <trkpt lat="49.048050000" lon="7.890170000">
        <ele>192.0</ele>
        <time>2010-12-10T00:14:18</time>
        <extensions><speed>8.31</speed></extensions>
      </trkpt>
      <trkpt lat="49.048141000" lon="7.889640000">
        <ele>187.0</ele>
        <time>2010-12-10T00:14:23</time>
        <extensions><speed>3.60</speed></extensions>
      </trkpt>
      <trkpt lat="49.048191000" lon="7.888420000">
        <ele>192.0</ele>
        <time>2010-12-10T00:14:47</time>
        <extensions><speed>3.60</speed></extensions>
      </trkpt>
      <trkpt lat="49.047970000" lon="7.887620000">
        <ele>197.0</ele>
        <time>2010-12-10T00:15:05</time>
        <extensions><speed>3.60</speed></extensions>
      </trkpt>
      <trkpt lat="49.046810000" lon="7.885570000">
        <ele>210.0</ele>
        <time>2010-12-10T00:16:00</time>
        <extensions><speed>8.32</speed></extensions>
      </trkpt>
      <trkpt lat="49.045399000" lon="7.881270000">
        <ele>193.0</ele>
        <time>2010-12-10T00:16:42</time>
        <extensions><speed>8.32</speed></extensions>
      </trkpt>
      <trkpt lat="49.046070000" lon="7.880910000">
        <ele>191.0</ele>
        <time>2010-12-10T00:16:52</time>
        <extensions><speed>4.94</speed></extensions>
      </trkpt>
      <trkpt lat="49.045280000" lon="7.879510000">
        <ele>195.0</ele>
        <time>2010-12-10T00:17:19</time>
        <extensions><speed>4.94</speed></extensions>
      </trkpt>
      <trkpt lat="49.045120000" lon="7.879010000">
        <ele>197.0</ele>
        <time>2010-12-10T00:17:28</time>
        <extensions><speed>4.94</speed></extensions>
      </trkpt>
      <trkpt lat="49.045170000" lon="7.878640000">
        <ele>198.0</ele>
        <time>2010-12-10T00:17:33</time>
        <extensions><speed>4.76</speed></extensions>
      </trkpt>
      <trkpt lat="49.045361000" lon="7.878370000">
        <ele>199.0</ele>
        <time>2010-12-10T00:17:39</time>
        <extensions><speed>4.76</speed></extensions>
      </trkpt>
      <trkpt lat="49.045719000" lon="7.878330000">
        <ele>200.0</ele>
        <time>2010-12-10T00:17:48</time>
        <extensions><speed>4.77</speed></extensions>
      </trkpt>
      <trkpt lat="49.046700000" lon="7.879590000">
        <ele>206.0</ele>
        <time>2010-12-10T00:18:18</time>
        <extensions><speed>8.31</speed></extensions>
      </trkpt>
      <trkpt lat="49.047298000" lon="7.879930000">
        <ele>202.0</ele>
        <time>2010-12-10T00:18:27</time>
        <extensions><speed>8.32</speed></extensions>
      </trkpt>
      <trkpt lat="49.047909000" lon="7.879740000">
        <ele>199.0</ele>
        <time>2010-12-10T00:18:35</time>
        <extensions><speed>8.32</speed></extensions>
      </trkpt>
      <trkpt lat="49.048920000" lon="7.878770000">
        <ele>196.0</ele>
        <time>2010-12-10T00:18:53</time>
        <extensions><speed>5.77</speed></extensions>
      </trkpt>
      <trkpt lat="49.050911000" lon="7.879400000">
        <ele>202.0</ele>
        <time>2010-12-10T00:19:35</time>
        <extensions><speed>4.44</speed></extensions>
      </trkpt>
      <trkpt lat="49.051510000" lon="7.878870000">
        <ele>206.0</ele>
        <time>2010-12-10T00:19:52</time>
        <extensions><speed>4.44</speed></extensions>
      </trkpt>
      <trkpt lat="49.052280000" lon="7.875700000">
        <ele>217.0</ele>
        <time>2010-12-10T00:20:48</time>
        <extensions><speed>8.32</speed></extensions>
      </trkpt>
      <trkpt lat="49.054409000" lon="7.872730000">
        <ele>200.0</ele>
        <time>2010-12-10T00:21:27</time>
        <extensions><speed>8.32</speed></extensions>
      </trkpt>
      <trkpt lat="49.055450000" lon="7.871710000">
        <ele>196.0</ele>
        <time>2010-12-10T00:21:43</time>
        <extensions><speed>8.32</speed></extensions>
      </trkpt>
      <trkpt lat="49.056229000" lon="7.870520000">
        <ele>193.0</ele>
        <time>2010-12-10T00:21:58</time>
        <extensions><speed>8.32</speed></extensions>
      </trkpt>
      <trkpt lat="49.057819000" lon="7.868780000">
        <ele>193.0</ele>
        <time>2010-12-10T00:22:24</time>
        <extensions><speed>8.32</speed></extensions>
      </trkpt>
      <trkpt lat="49.059711000" lon="7.865770000">
        <ele>186.0</ele>
        <time>2010-12-10T00:23:07</time>
        <extensions><speed>3.69</speed></extensions>
      </trkpt>
      <trkpt lat="49.060791000" lon="7.862540000">
        <ele>192.0</ele>
        <time>2010-12-10T00:24:08</time>
        <extensions><speed>8.32</speed></extensions>
      </trkpt>
      <trkpt lat="49.061859000" lon="7.861160000">
        <ele>180.0</ele>
        <time>2010-12-10T00:24:27</time>
        <extensions><speed>4.19</speed></extensions>
      </trkpt>
      <trkpt lat="49.062851000" lon="7.859330000">
        <ele>188.0</ele>
        <time>2010-12-10T00:25:08</time>
        <extensions><speed>4.19</speed></extensions>
      </trkpt>
      <trkpt lat="49.063389000" lon="7.856840000">
        <ele>185.0</ele>
        <time>2010-12-10T00:25:37</time>
        <extensions><speed>8.32</speed></extensions>
      </trkpt>
      <trkpt lat="49.063801000" lon="7.856110000">
        <ele>183.0</ele>
        <time>2010-12-10T00:25:46</time>
        <extensions><speed>8.35</speed></extensions>
      </trkpt>
      <trkpt lat="49.064220000" lon="7.855970000">
        <ele>182.0</ele>
        <time>2010-12-10T00:25:53</time>
        <extensions><speed>8.32</speed></extensions>
      </trkpt>
      <trkpt lat="49.065430000" lon="7.856240000">
        <ele>182.0</ele>
        <time>2010-12-10T00:26:09</time>
        <extensions><speed>8.32</speed></extensions>
      </trkpt>
      <trkpt lat="49.066761000" lon="7.856000000">
        <ele>182.0</ele>
        <time>2010-12-10T00:26:27</time>
        <extensions><speed>8.31</speed></extensions>
      </trkpt>
      <trkpt lat="49.067051000" lon="7.857460000">
        <ele>182.0</ele>
        <time>2010-12-10T00:26:40</time>
        <extensions><speed>2.52</speed></extensions>
      </trkpt>
      <trkpt lat="49.068069000" lon="7.858560000">
        <ele>198.0</ele>
        <time>2010-12-10T00:27:36</time>
        <extensions><speed>2.51</speed></extensions>
      </trkpt>
      <trkpt lat="49.071159000" lon="7.858470000">
        <ele>216.0</ele>
        <time>2010-12-10T00:29:01</time>
        <extensions><speed>7.04</speed></extensions>
      </trkpt>
      <trkpt lat="49.073399000" lon="7.858770000">
        <ele>218.0</ele>
        <time>2010-12-10T00:29:35</time>
        <extensions><speed>8.32</speed></extensions>
      </trkpt>
      <trkpt lat="49.076302000" lon="7.858100000">
        <ele>195.0</ele>
        <time>2010-12-10T00:30:14</time>
        <extensions><speed>3.61</speed></extensions>
      </trkpt>
      <trkpt lat="49.079571000" lon="7.855810000">
        <ele>206.0</ele>
        <time>2010-12-10T00:31:39</time>
        <extensions><speed>8.32</speed></extensions>
      </trkpt>
      <trkpt lat="49.080151000" lon="7.854840000">
        <ele>204.0</ele>
        <time>2010-12-10T00:31:50</time>
        <extensions><speed>8.32</speed></extensions>
      </trkpt>
      <trkpt lat="49.080090000" lon="7.853920000">
        <ele>200.0</ele>
        <time>2010-12-10T00:31:58</time>
        <extensions><speed>8.32</speed></extensions>
      </trkpt>
      <trkpt lat="49.080570000" lon="7.852310000">
        <ele>194.0</ele>
        <time>2010-12-10T00:32:14</time>
        <extensions><speed>8.32</speed></extensions>
      </trkpt>
      <trkpt lat="49.080978000" lon="7.850100000">
        <ele>199.0</ele>
        <time>2010-12-10T00:32:55</time>
        <extensions><speed>3.21</speed></extensions>
      </trkpt>
      <trkpt lat="49.081951000" lon="7.848620000">
        <ele>212.0</ele>
        <time>2010-12-10T00:33:43</time>
        <extensions><speed>5.56</speed></extensions>
      </trkpt>
      <trkpt lat="49.082569000" lon="7.846570000">
        <ele>216.0</ele>
        <time>2010-12-10T00:34:12</time>
        <extensions><speed>5.56</speed></extensions>
      </trkpt>
      <trkpt lat="49.082710000" lon="7.845530000">
        <ele>218.0</ele>
        <time>2010-12-10T00:34:26</time>
        <extensions><speed>8.32</speed></extensions>
      </trkpt>
      <trkpt lat="49.082649000" lon="7.841740000">
        <ele>217.0</ele>
        <time>2010-12-10T00:35:04</time>
        <extensions><speed>5.62</speed></extensions>
      </trkpt>
      <trkpt lat="49.082741000" lon="7.840560000">
        <ele>219.0</ele>
        <time>2010-12-10T00:35:19</time>
        <extensions><speed>5.62</speed></extensions>
      </trkpt>
      <trkpt lat="49.083111000" lon="7.838900000">
        <ele>212.0</ele>
        <time>2010-12-10T00:35:37</time>
        <extensions><speed>8.31</speed></extensions>
      </trkpt>
      <trkpt lat="49.083851000" lon="7.837130000">
        <ele>195.0</ele>
        <time>2010-12-10T00:35:56</time>
        <extensions><speed>2.49</speed></extensions>
      </trkpt>
      <trkpt lat="49.085331000" lon="7.835260000">
        <ele>220.0</ele>
        <time>2010-12-10T00:37:21</time>
        <extensions><speed>8.32</speed></extensions>
      </trkpt>
      <trkpt lat="49.085331000" lon="7.834500000">
        <ele>216.0</ele>
        <time>2010-12-10T00:37:28</time>
        <extensions><speed>8.32</speed></extensions>
      </trkpt>
      <trkpt lat="49.086071000" lon="7.832650000">
        <ele>206.0</ele>
        <time>2010-12-10T00:37:47</time>
        <extensions><speed>4.78</speed></extensions>
      </trkpt>
      <trkpt lat="49.086220000" lon="7.831820000">
        <ele>208.0</ele>
        <time>2010-12-10T00:38:01</time>
        <extensions><speed>4.78</speed></extensions>
      </trkpt>
      <trkpt lat="49.086151000" lon="7.830380000">
        <ele>212.0</ele>
        <time>2010-12-10T00:38:23</time>
        <extensions><speed>4.78</speed></extensions>
      </trkpt>
      <trkpt lat="49.086811000" lon="7.827330000">
        <ele>240.0</ele>
        <time>2010-12-10T00:39:58</time>
        <extensions><speed>2.19</speed></extensions>
      </trkpt>
      <trkpt lat="49.087650000" lon="7.826000000">
        <ele>242.0</ele>
        <time>2010-12-10T00:40:28</time>
        <extensions><speed>8.32</speed></extensions>
      </trkpt>
      <trkpt lat="49.088581000" lon="7.825170000">
        <ele>237.0</ele>
        <time>2010-12-10T00:40:42</time>
        <extensions><speed>8.32</speed></extensions>
      </trkpt>
      <trkpt lat="49.089741000" lon="7.824670000">
        <ele>219.0</ele>
        <time>2010-12-10T00:40:59</time>
        <extensions><speed>8.31</speed></extensions>
      </trkpt>
      <trkpt lat="49.090302000" lon="7.823170000">
        <ele>208.0</ele>
        <time>2010-12-10T00:41:14</time>
        <extensions><speed>8.32</speed></extensions>
      </trkpt>
      <trkpt lat="49.089951000" lon="7.821150000">
        <ele>206.0</ele>
        <time>2010-12-10T00:41:32</time>
        <extensions><speed>3.85</speed></extensions>
      </trkpt>
      <trkpt lat="49.089951000" lon="7.820380000">
        <ele>209.0</ele>
        <time>2010-12-10T00:41:47</time>
        <extensions><speed>3.85</speed></extensions>
      </trkpt>
      <trkpt lat="49.090302000" lon="7.819110000">
        <ele>215.0</ele>
        <time>2010-12-10T00:42:13</time>
        <extensions><speed>3.85</speed></extensions>
      </trkpt>
      <trkpt lat="49.090340000" lon="7.817720000">
        <ele>221.0</ele>
        <time>2010-12-10T00:42:39</time>
        <extensions><speed>8.31</speed></extensions>
      </trkpt>
      <trkpt lat="49.090221000" lon="7.816730000">
        <ele>211.0</ele>
        <time>2010-12-10T00:42:48</time>
        <extensions><speed>8.32</speed></extensions>
      </trkpt>
      <trkpt lat="49.089729000" lon="7.815310000">
        <ele>196.0</ele>
        <time>2010-12-10T00:43:02</time>
        <extensions><speed>8.33</speed></extensions>
      </trkpt>
      <trkpt lat="49.089600000" lon="7.814310000">
        <ele>193.0</ele>
        <time>2010-12-10T00:43:11</time>
        <extensions><speed>8.33</speed></extensions>
      </trkpt>
      <trkpt lat="49.090050000" lon="7.811990000">
        <ele>192.0</ele>
        <time>2010-12-10T00:43:32</time>
        <extensions><speed>5.18</speed></extensions>
      </trkpt>
      <trkpt lat="49.090679000" lon="7.811190000">
        <ele>194.0</ele>
        <time>2010-12-10T00:43:50</time>
        <extensions><speed>5.17</speed></extensions>
      </trkpt>
      <trkpt lat="49.091820000" lon="7.811880000">
        <ele>199.0</ele>
        <time>2010-12-10T00:44:17</time>
        <extensions><speed>8.31</speed></extensions>
      </trkpt>
      <trkpt lat="49.092899000" lon="7.812080000">
        <ele>196.0</ele>
        <time>2010-12-10T00:44:31</time>
        <extensions><speed>8.31</speed></extensions>
      </trkpt>
      <trkpt lat="49.093330000" lon="7.811920000">
        <ele>195.0</ele>
        <time>2010-12-10T00:44:37</time>
        <extensions><speed>8.32</speed></extensions>
      </trkpt>
      <trkpt lat="49.093800000" lon="7.811410000">
        <ele>195.0</ele>
        <time>2010-12-10T00:44:45</time>
        <extensions><speed>8.33</speed></extensions>
      </trkpt>
      <trkpt lat="49.093479000" lon="7.810270000">
        <ele>195.0</ele>
        <time>2010-12-10T00:44:56</time>
        <extensions><speed>8.32</speed></extensions>
      </trkpt>
      <trkpt lat="49.094200000" lon="7.808830000">
        <ele>200.0</ele>
        <time>2010-12-10T00:45:25</time>
        <extensions><speed>2.45</speed></extensions>
      </trkpt>
      <trkpt lat="49.094490000" lon="7.806370000">
        <ele>217.0</ele>
        <time>2010-12-10T00:46:34</time>
        <extensions><speed>8.32</speed></extensions>
      </trkpt>
      <trkpt lat="49.095169000" lon="7.805310000">
        <ele>205.0</ele>
        <time>2010-12-10T00:46:47</time>
        <extensions><speed>8.31</speed></extensions>
      </trkpt>
      <trkpt lat="49.095940000" lon="7.804520000">
        <ele>196.0</ele>
        <time>2010-12-10T00:47:03</time>
        <extensions><speed>3.10</speed></extensions>
      </trkpt>
      <trkpt lat="49.097450000" lon="7.804650000">
        <ele>210.0</ele>
        <time>2010-12-10T00:47:57</time>
        <extensions><speed>3.10</speed></extensions>
      </trkpt>
      <trkpt lat="49.098850000" lon="7.805460000">
        <ele>210.0</ele>
        <time>2010-12-10T00:48:35</time>
        <extensions><speed>8.31</speed></extensions>
      </trkpt>
      <trkpt lat="49.099930000" lon="7.806370000">
        <ele>198.0</ele>
        <time>2010-12-10T00:48:51</time>
        <extensions><speed>5.59</speed></extensions>
      </trkpt>
      <trkpt lat="49.100788000" lon="7.806130000">
        <ele>200.0</ele>
        <time>2010-12-10T00:49:09</time>
        <extensions><speed>5.59</speed></extensions>
      </trkpt>
      <trkpt lat="49.100868000" lon="7.805230000">
        <ele>202.0</ele>
        <time>2010-12-10T00:49:22</time>
        <extensions><speed>8.32</speed></extensions>
      </trkpt>
      <trkpt lat="49.100658000" lon="7.807060000">
        <ele>196.0</ele>
        <time>2010-12-10T00:49:38</time>
        <extensions><speed>8.32</speed></extensions>
      </trkpt>
      <trkpt lat="49.101452000" lon="7.806770000">
        <ele>193.0</ele>
        <time>2010-12-10T00:49:49</time>
        <extensions><speed>6.62</speed></extensions>
      </trkpt>
      <trkpt lat="49.102249000" lon="7.806070000">
        <ele>194.0</ele>
        <time>2010-12-10T00:50:05</time>
        <extensions><speed>6.62</speed></extensions>
      </trkpt>
      <trkpt lat="49.103668000" lon="7.804190000">
        <ele>197.0</ele>
        <time>2010-12-10T00:50:36</time>
        <extensions><speed>8.32</speed></extensions>
      </trkpt>
      <trkpt lat="49.104050000" lon="7.803380000">
        <ele>196.0</ele>
        <time>2010-12-10T00:50:45</time>
        <extensions><speed>8.32</speed></extensions>
      </trkpt>
      <trkpt lat="49.105652000" lon="7.802440000">
        <ele>194.0</ele>
        <time>2010-12-10T00:51:08</time>
        <extensions><speed>8.32</speed></extensions>
      </trkpt>
      <trkpt lat="49.107529000" lon="7.802140000">
        <ele>192.0</ele>
        <time>2010-12-10T00:51:33</time>
        <extensions><speed>6.13</speed></extensions>
      </trkpt>
      <trkpt lat="49.107750000" lon="7.800850000">
        <ele>193.0</ele>
        <time>2010-12-10T00:51:49</time>
        <extensions><speed>6.13</speed></extensions>
      </trkpt>
      <trkpt lat="49.111431000" lon="7.801580000">
        <ele>198.0</ele>
        <time>2010-12-10T00:52:49</time>
        <extensions><speed>7.33</speed></extensions>
      </trkpt>
      <trkpt lat="49.113049000" lon="7.802240000">
        <ele>199.0</ele>
        <time>2010-12-10T00:53:14</time>
        <extensions><speed>7.33</speed></extensions>
      </trkpt>
      <trkpt lat="49.113461000" lon="7.800850000">
        <ele>200.0</ele>
        <time>2010-12-10T00:53:29</time>
        <extensions><speed>6.09</speed></extensions>
      </trkpt>
      <trkpt lat="49.114052000" lon="7.800290000">
        <ele>201.0</ele>
        <time>2010-12-10T00:53:42</time>
        <extensions><speed>6.10</speed></extensions>
      </trkpt>
      <trkpt lat="49.116772000" lon="7.799610000">
        <ele>200.0</ele>
        <time>2010-12-10T00:54:25</time>
        <extensions><speed>8.32</speed></extensions>
      </trkpt>
      <trkpt lat="49.117939000" lon="7.798950000">
        <ele>198.0</ele>
        <time>2010-12-10T00:54:42</time>
        <extensions><speed>8.31</speed></extensions>
      </trkpt>
      <trkpt lat="49.118710000" lon="7.799070000">
        <ele>197.0</ele>
        <time>2010-12-10T00:54:52</time>
        <extensions><speed>8.32</speed></extensions>
      </trkpt>
      <trkpt lat="49.119499000" lon="7.800290000">
        <ele>197.0</ele>
        <time>2010-12-10T00:55:07</time>
        <extensions><speed>7.52</speed></extensions>
      </trkpt>
      <trkpt lat="49.121101000" lon="7.801070000">
        <ele>197.0</ele>
        <time>2010-12-10T00:55:32</time>
        <extensions><speed>7.52</speed></extensions>
      </trkpt>
      <trkpt lat="49.122780000" lon="7.801450000">
        <ele>199.0</ele>
        <time>2010-12-10T00:55:57</time>
        <extensions><speed>5.57</speed></extensions>
      </trkpt>
      <trkpt lat="49.123680000" lon="7.800900000">
        <ele>201.0</ele>
        <time>2010-12-10T00:56:16</time>
        <extensions><speed>5.57</speed></extensions>
      </trkpt>
      <trkpt lat="49.124889000" lon="7.800720000">
        <ele>205.0</ele>
        <time>2010-12-10T00:56:40</time>
        <extensions><speed>8.32</speed></extensions>
      </trkpt>
      <trkpt lat="49.126381000" lon="7.800810000">
        <ele>204.0</ele>
        <time>2010-12-10T00:57:00</time>
        <extensions><speed>8.32</speed></extensions>
      </trkpt>
      <trkpt lat="49.127560000" lon="7.800510000">
        <ele>204.0</ele>
        <time>2010-12-10T00:57:16</time>
        <extensions><speed>3.31</speed></extensions>
      </trkpt>
      <trkpt lat="49.129162000" lon="7.800720000">
        <ele>217.0</ele>
        <time>2010-12-10T00:58:10</time>
        <extensions><speed>3.31</speed></extensions>
      </trkpt>
      <trkpt lat="49.131599000" lon="7.799990000">
        <ele>218.0</ele>
        <time>2010-12-10T00:59:09</time>
        <extensions><speed>8.32</speed></extensions>
      </trkpt>
      <trkpt lat="49.133621000" lon="7.800340000">
        <ele>206.0</ele>
        <time>2010-12-10T00:59:36</time>
        <extensions><speed>8.32</speed></extensions>
      </trkpt>
      <trkpt lat="49.135448000" lon="7.799860000">
        <ele>202.0</ele>
        <time>2010-12-10T01:00:01</time>
        <extensions><speed>8.32</speed></extensions>
      </trkpt>
      <trkpt lat="49.136379000" lon="7.798790000">
        <ele>202.0</ele>
        <time>2010-12-10T01:00:16</time>
        <extensions><speed>8.32</speed></extensions>
      </trkpt>
      <trkpt lat="49.137119000" lon="7.797420000">
        <ele>202.0</ele>
        <time>2010-12-10T01:00:32</time>
        <extensions><speed>3.18</speed></extensions>
      </trkpt>
      <trkpt lat="49.137741000" lon="7.794520000">
        <ele>220.0</ele>
        <time>2010-12-10T01:01:42</time>
        <extensions><speed>5.28</speed></extensions>
      </trkpt>
      <trkpt lat="49.138008000" lon="7.792080000">
        <ele>225.0</ele>
        <time>2010-12-10T01:02:16</time>
        <extensions><speed>5.28</speed></extensions>
      </trkpt>
      <trkpt lat="49.138401000" lon="7.790880000">
        <ele>228.0</ele>
        <time>2010-12-10T01:02:34</time>
        <extensions><speed>8.32</speed></extensions>
      </trkpt>
      <trkpt lat="49.139080000" lon="7.789930000">
        <ele>221.0</ele>
        <time>2010-12-10T01:02:46</time>
        <extensions><speed>8.32</speed></extensions>
      </trkpt>
      <trkpt lat="49.140450000" lon="7.788710000">
        <ele>214.0</ele>
        <time>2010-12-10T01:03:09</time>
        <extensions><speed>7.16</speed></extensions>
      </trkpt>
      <trkpt lat="49.140911000" lon="7.787810000">
        <ele>215.0</ele>
        <time>2010-12-10T01:03:21</time>
        <extensions><speed>7.16</speed></extensions>
      </trkpt>
      <trkpt lat="49.141232000" lon="7.786660000">
        <ele>216.0</ele>
        <time>2010-12-10T01:03:33</time>
        <extensions><speed>5.31</speed></extensions>
      </trkpt>
      <trkpt lat="49.141209000" lon="7.784330000">
        <ele>220.0</ele>
        <time>2010-12-10T01:04:05</time>
        <extensions><speed>5.31</speed></extensions>
      </trkpt>
      <trkpt lat="49.140850000" lon="7.782890000">
        <ele>224.0</ele>
        <time>2010-12-10T01:04:27</time>
        <extensions><speed>8.32</speed></extensions>
      </trkpt>
      <trkpt lat="49.140659000" lon="7.780140000">
        <ele>222.0</ele>
        <time>2010-12-10T01:04:51</time>
        <extensions><speed>7.67</speed></extensions>
      </trkpt>
      <trkpt lat="49.140869000" lon="7.779200000">
        <ele>222.0</ele>
        <time>2010-12-10T01:05:00</time>
        <extensions><speed>7.66</speed></extensions>
      </trkpt>
      <trkpt lat="49.141380000" lon="7.778490000">
        <ele>222.0</ele>
        <time>2010-12-10T01:05:10</time>
        <extensions><speed>7.68</speed></extensions>
      </trkpt>
      <trkpt lat="49.142899000" lon="7.777320000">
        <ele>216.0</ele>
        <time>2010-12-10T01:05:34</time>
        <extensions><speed>8.32</speed></extensions>
      </trkpt>
      <trkpt lat="49.143929000" lon="7.777640000">
        <ele>208.0</ele>
        <time>2010-12-10T01:05:48</time>
        <extensions><speed>8.32</speed></extensions>
      </trkpt>
      <trkpt lat="49.144550000" lon="7.779090000">
        <ele>207.0</ele>
        <time>2010-12-10T01:06:03</time>
        <extensions><speed>8.32</speed></extensions>
      </trkpt>
      <trkpt lat="49.145031000" lon="7.779530000">
        <ele>206.0</ele>
        <time>2010-12-10T01:06:11</time>
        <extensions><speed>8.32</speed></extensions>
      </trkpt>
      <trkpt lat="49.145790000" lon="7.779610000">
        <ele>206.0</ele>
        <time>2010-12-10T01:06:21</time>
        <extensions><speed>6.73</speed></extensions>
      </trkpt>
      <trkpt lat="49.147091000" lon="7.779020000">
        <ele>207.0</ele>
        <time>2010-12-10T01:06:44</time>
        <extensions><speed>6.73</speed></extensions>
      </trkpt>
      <trkpt lat="49.148769000" lon="7.777170000">
        <ele>207.0</ele>
        <time>2010-12-10T01:07:14</time>
        <extensions><speed>8.34</speed></extensions>
      </trkpt>
      <trkpt lat="49.148682000" lon="7.776990000">
        <ele>207.0</ele>
        <time>2010-12-10T01:07:16</time>
        <extensions><speed>8.32</speed></extensions>
      </trkpt>
      <trkpt lat="49.149979000" lon="7.775510000">
        <ele>207.0</ele>
        <time>2010-12-10T01:07:39</time>
        <extensions><speed>7.64</speed></extensions>
      </trkpt>
      <trkpt lat="49.153339000" lon="7.772180000">
        <ele>206.0</ele>
        <time>2010-12-10T01:08:36</time>
        <extensions><speed>8.31</speed></extensions>
      </trkpt>
      <trkpt lat="49.153000000" lon="7.771200000">
        <ele>204.0</ele>
        <time>2010-12-10T01:08:46</time>
        <extensions><speed>8.32</speed></extensions>
      </trkpt>
      <trkpt lat="49.152828000" lon="7.769950000">
        <ele>210.0</ele>
        <time>2010-12-10T01:09:13</time>
        <extensions><speed>2.31</speed></extensions>
      </trkpt>
      <trkpt lat="49.154350000" lon="7.769470000">
        <ele>233.0</ele>
        <time>2010-12-10T01:10:28</time>
        <extensions><speed>8.32</speed></extensions>
      </trkpt>
      <trkpt lat="49.155281000" lon="7.768020000">
        <ele>228.0</ele>
        <time>2010-12-10T01:10:45</time>
        <extensions><speed>8.31</speed></extensions>
      </trkpt>
      <trkpt lat="49.157280000" lon="7.766280000">
        <ele>234.0</ele>
        <time>2010-12-10T01:11:38</time>
        <extensions><speed>3.77</speed></extensions>
      </trkpt>
      <trkpt lat="49.158081000" lon="7.765070000">
        <ele>237.0</ele>
        <time>2010-12-10T01:12:07</time>
        <extensions><speed>8.32</speed></extensions>
      </trkpt>
      <trkpt lat="49.158440000" lon="7.764900000">
        <ele>234.0</ele>
        <time>2010-12-10T01:12:12</time>
        <extensions><speed>8.31</speed></extensions>
      </trkpt>
      <trkpt lat="49.159401000" lon="7.765270000">
        <ele>226.0</ele>
        <time>2010-12-10T01:12:26</time>
        <extensions><speed>8.31</speed></extensions>
      </trkpt>
      <trkpt lat="49.159790000" lon="7.765180000">
        <ele>223.0</ele>
        <time>2010-12-10T01:12:31</time>
        <extensions><speed>5.72</speed></extensions>
      </trkpt>
      <trkpt lat="49.161140000" lon="7.763520000">
        <ele>227.0</ele>
        <time>2010-12-10T01:13:05</time>
        <extensions><speed>5.72</speed></extensions>
      </trkpt>
      <trkpt lat="49.165138000" lon="7.756940000">
        <ele>218.0</ele>
        <time>2010-12-10T01:14:51</time>
        <extensions><speed>8.32</speed></extensions>
      </trkpt>
      <trkpt lat="49.167820000" lon="7.749070000">
        <ele>223.0</ele>
        <time>2010-12-10T01:16:46</time>
        <extensions><speed>4.30</speed></extensions>
      </trkpt>
      <trkpt lat="49.168411000" lon="7.748290000">
        <ele>227.0</ele>
        <time>2010-12-10T01:17:07</time>
        <extensions><speed>4.29</speed></extensions>
      </trkpt>
      <trkpt lat="49.169312000" lon="7.747550000">
        <ele>228.0</ele>
        <time>2010-12-10T01:17:23</time>
        <extensions><speed>8.32</speed></extensions>
      </trkpt>
      <trkpt lat="49.169899000" lon="7.747440000">
        <ele>227.0</ele>
        <time>2010-12-10T01:17:31</time>
        <extensions><speed>8.33</speed></extensions>
      </trkpt>
      <trkpt lat="49.171581000" lon="7.748080000">
        <ele>223.0</ele>
        <time>2010-12-10T01:17:55</time>
        <extensions><speed>8.32</speed></extensions>
      </trkpt>
      <trkpt lat="49.172829000" lon="7.747940000">
        <ele>217.0</ele>
        <time>2010-12-10T01:18:11</time>
        <extensions><speed>4.29</speed></extensions>
      </trkpt>
      <trkpt lat="49.174641000" lon="7.747020000">
        <ele>227.0</ele>
        <time>2010-12-10T01:19:01</time>
        <extensions><speed>8.32</speed></extensions>
      </trkpt>
      <trkpt lat="49.175140000" lon="7.746460000">
        <ele>224.0</ele>
        <time>2010-12-10T01:19:09</time>
        <extensions><speed>8.32</speed></extensions>
      </trkpt>
      <trkpt lat="49.175963917" lon="7.744337236">
        <ele>215.3</ele>
      </trkpt>
      <trkpt lat="49.175619486" lon="7.743259014">
        <ele>219.5</ele>
      </trkpt>
      <trkpt lat="49.176300006" lon="7.743821267">
        <ele>215.8</ele>
      </trkpt>
      <trkpt lat="49.175627917" lon="7.743207368">
        <ele>219.5</ele>
      </trkpt>
      <trkpt lat="49.174807117" lon="7.740498855">
        <ele>221.7</ele>
      </trkpt>
      <trkpt lat="49.174898928" lon="7.740259942">
        <ele>221.7</ele>
      </trkpt>
      <trkpt lat="49.174070755" lon="7.737294552">
        <ele>223.7</ele>
      </trkpt>
      <trkpt lat="49.173789361" lon="7.735409074">
        <ele>226.6</ele>
      </trkpt>
      <trkpt lat="49.173671182" lon="7.732010837">
        <ele>239.6</ele>
      </trkpt>
      <trkpt lat="49.174008472" lon="7.729972435">
        <ele>256.8</ele>
      </trkpt>
      <trkpt lat="49.172159306" lon="7.726179724">
        <ele>264.8</ele>
      </trkpt>
      <trkpt lat="49.171984144" lon="7.723345369">
        <ele>257.8</ele>
      </trkpt>
      <trkpt lat="49.172161173" lon="7.720652816">
        <ele>240.7</ele>
      </trkpt>
      <trkpt lat="49.171836275" lon="7.720140046">
        <ele>234.9</ele>
      </trkpt>
      <trkpt lat="49.171062962" lon="7.719734841">
        <ele>233.4</ele>
      </trkpt>
      <trkpt lat="49.170072292" lon="7.719595814">
        <ele>233.6</ele>
      </trkpt>
      <trkpt lat="49.169301474" lon="7.719821388">
        <ele>234.3</ele>
      </trkpt>
      <trkpt lat="49.168788351" lon="7.718147870">
        <ele>241.7</ele>
      </trkpt>
      <trkpt lat="49.168124800" lon="7.718315840">
        <ele>242.7</ele>
      </trkpt>
      <trkpt lat="49.166959068" lon="7.717797406">
        <ele>248.1</ele>
      </trkpt>
      <trkpt lat="49.166594009" lon="7.717313171">
        <ele>250.5</ele>
      </trkpt>
      <trkpt lat="49.164863740" lon="7.713737807">
        <ele>250.5</ele>
      </trkpt>
      <trkpt lat="49.163640599" lon="7.710492323">
        <ele>247.3</ele>
      </trkpt>
      <trkpt lat="49.163409387" lon="7.709113424">
        <ele>248.0</ele>
      </trkpt>
      <trkpt lat="49.163417214" lon="7.705794944">
        <ele>244.8</ele>
      </trkpt>
      <trkpt lat="49.162920206" lon="7.701570960">
        <ele>246.1</ele>
      </trkpt>
      <trkpt lat="49.163513571" lon="7.696769990">
        <ele>252.6</ele>
      </trkpt>
      <trkpt lat="49.163080096" lon="7.693421969">
        <ele>261.2</ele>
      </trkpt>
      <trkpt lat="49.163097240" lon="7.690171818">
        <ele>261.0</ele>
      </trkpt>
      <trkpt lat="49.163735912" lon="7.686233348">
        <ele>260.7</ele>
      </trkpt>
      <trkpt lat="49.164372231" lon="7.685256667">
        <ele>262.0</ele>
      </trkpt>
      <trkpt lat="49.164729558" lon="7.684259927">
        <ele>265.9</ele>
      </trkpt>
      <trkpt lat="49.165205808" lon="7.679502820">
        <ele>270.0</ele>
      </trkpt>
      <trkpt lat="49.165647489" lon="7.678023838">
        <ele>270.7</ele>
      </trkpt>
      <trkpt lat="49.165513422" lon="7.674955808">
        <ele>273.6</ele>
      </trkpt>
      <trkpt lat="49.166175065" lon="7.669933030">
        <ele>282.6</ele>
      </trkpt>
      <trkpt lat="49.166594235" lon="7.668852207">
        <ele>282.6</ele>
      </trkpt>
      <trkpt lat="49.167410191" lon="7.667870427">
        <ele>287.2</ele>
      </trkpt>
      <trkpt lat="49.168052205" lon="7.667400672">
        <ele>290.3</ele>
      </trkpt>
      <trkpt lat="49.168736026" lon="7.667437178">
        <ele>292.6</ele>
      </trkpt>
      <trkpt lat="49.169248390" lon="7.666641760">
        <ele>300.3</ele>
      </trkpt>
      <trkpt lat="49.169777071" lon="7.660264418">
        <ele>327.7</ele>
      </trkpt>
      <trkpt lat="49.170259468" lon="7.658441181">
        <ele>340.8</ele>
      </trkpt>
      <trkpt lat="49.171266339" lon="7.657645992">
        <ele>347.3</ele>
      </trkpt>
      <trkpt lat="49.171174018" lon="7.655893086">
        <ele>341.8</ele>
      </trkpt>
      <trkpt lat="49.171986139" lon="7.655363676">
        <ele>333.6</ele>
      </trkpt>
      <trkpt lat="49.173701106" lon="7.653602891">
        <ele>317.9</ele>
      </trkpt>
      <trkpt lat="49.174666193" lon="7.653082982">
        <ele>319.1</ele>
      </trkpt>
      <trkpt lat="49.175387477" lon="7.651705608">
        <ele>307.6</ele>
      </trkpt>
      <trkpt lat="49.176648239" lon="7.651095317">
        <ele>303.0</ele>
      </trkpt>
      <trkpt lat="49.177089533" lon="7.650383827">
        <ele>309.8</ele>
      </trkpt>
      <trkpt lat="49.177191796" lon="7.649900996">
        <ele>313.7</ele>
      </trkpt>
      <trkpt lat="49.177082964" lon="7.649821661">
        <ele>310.8</ele>
      </trkpt>
      <trkpt lat="49.177130977" lon="7.648544793">
        <ele>309.1</ele>
      </trkpt>
      <trkpt lat="49.177233714" lon="7.648103093">
        <ele>307.2</ele>
      </trkpt>
      <trkpt lat="49.177853651" lon="7.647290689">
        <ele>310.2</ele>
      </trkpt>
      <trkpt lat="49.178486656" lon="7.642994018">
        <ele>334.4</ele>
      </trkpt>
      <trkpt lat="49.178386486" lon="7.642887027">
        <ele>334.0</ele>
      </trkpt>
      <trkpt lat="49.178929797" lon="7.641678864">
        <ele>334.2</ele>
      </trkpt>
      <trkpt lat="49.179332446" lon="7.639980738">
        <ele>333.7</ele>
      </trkpt>
      <trkpt lat="49.179649823" lon="7.636392055">
        <ele>359.5</ele>
      </trkpt>
      <trkpt lat="49.180225295" lon="7.634867423">
        <ele>357.7</ele>
      </trkpt>
      <trkpt lat="49.180180099" lon="7.634086821">
        <ele>365.0</ele>
      </trkpt>
      <trkpt lat="49.179778641" lon="7.632835951">
        <ele>378.6</ele>
      </trkpt>
      <trkpt lat="49.179833882" lon="7.630667225">
        <ele>385.3</ele>
      </trkpt>
      <trkpt lat="49.180107669" lon="7.630248177">
        <ele>386.2</ele>
      </trkpt>
      <trkpt lat="49.181059871" lon="7.630167036">
        <ele>400.8</ele>
      </trkpt>
      <trkpt lat="49.181685286" lon="7.628311701">
        <ele>415.0</ele>
      </trkpt>
      <trkpt lat="49.181865070" lon="7.628306733">
        <ele>415.5</ele>
      </trkpt>
      <trkpt lat="49.182610435" lon="7.626708798">
        <ele>415.6</ele>
        <time>2010-12-10T02:07:43</time>
        <extensions><speed>7.44</speed></extensions>
      </trkpt>
      <trkpt lat="49.181938000" lon="7.625780000">
        <ele>416.0</ele>
        <time>2010-12-10T02:07:56</time>
        <extensions><speed>7.44</speed></extensions>
      </trkpt>
      <trkpt lat="49.181171000" lon="7.622920000">
        <ele>418.0</ele>
        <time>2010-12-10T02:08:27</time>
        <extensions><speed>6.98</speed></extensions>
      </trkpt>
      <trkpt lat="49.180401000" lon="7.622090000">
        <ele>419.0</ele>
        <time>2010-12-10T02:08:42</time>
        <extensions><speed>6.98</speed></extensions>
      </trkpt>
      <trkpt lat="49.177990000" lon="7.618680000">
        <ele>421.0</ele>
        <time>2010-12-10T02:09:33</time>
        <extensions><speed>8.31</speed></extensions>
      </trkpt>
      <trkpt lat="49.174271000" lon="7.614870000">
        <ele>421.0</ele>
        <time>2010-12-10T02:10:41</time>
        <extensions><speed>5.86</speed></extensions>
      </trkpt>
      <trkpt lat="49.173191000" lon="7.614400000">
        <ele>424.0</ele>
        <time>2010-12-10T02:11:03</time>
        <extensions><speed>5.66</speed></extensions>
      </trkpt>
      <trkpt lat="49.172279000" lon="7.614400000">
        <ele>426.0</ele>
        <time>2010-12-10T02:11:21</time>
        <extensions><speed>5.65</speed></extensions>
      </trkpt>
      <trkpt lat="49.171299000" lon="7.614660000">
        <ele>429.0</ele>
        <time>2010-12-10T02:11:40</time>
        <extensions><speed>4.54</speed></extensions>
      </trkpt>
      <trkpt lat="49.170078000" lon="7.615580000">
        <ele>435.0</ele>
        <time>2010-12-10T02:12:14</time>
        <extensions><speed>4.54</speed></extensions>
      </trkpt>
      <trkpt lat="49.169720000" lon="7.615630000">
        <ele>436.0</ele>
        <time>2010-12-10T02:12:22</time>
        <extensions><speed>4.54</speed></extensions>
      </trkpt>
      <trkpt lat="49.168171000" lon="7.614640000">
        <ele>440.0</ele>
        <time>2010-12-10T02:12:55</time>
        <extensions><speed>8.32</speed></extensions>
      </trkpt>
      <trkpt lat="49.166458000" lon="7.611880000">
        <ele>439.0</ele>
        <time>2010-12-10T02:13:30</time>
        <extensions><speed>7.23</speed></extensions>
      </trkpt>
      <trkpt lat="49.157398000" lon="7.599330000">
        <ele>436.0</ele>
        <time>2010-12-10T02:16:18</time>
        <extensions><speed>8.32</speed></extensions>
      </trkpt>
      <trkpt lat="49.154591000" lon="7.596490000">
        <ele>438.0</ele>
        <time>2010-12-10T02:17:08</time>
        <extensions><speed>5.31</speed></extensions>
      </trkpt>
      <trkpt lat="49.152290000" lon="7.593700000">
        <ele>445.0</ele>
        <time>2010-12-10T02:18:04</time>
        <extensions><speed>8.32</speed></extensions>
      </trkpt>
      <trkpt lat="49.149681000" lon="7.589800000">
        <ele>439.0</ele>
        <time>2010-12-10T02:18:53</time>
        <extensions><speed>8.31</speed></extensions>
      </trkpt>
      <trkpt lat="49.148571000" lon="7.588680000">
        <ele>438.0</ele>
        <time>2010-12-10T02:19:11</time>
        <extensions><speed>7.58</speed></extensions>
      </trkpt>
      <trkpt lat="49.147499000" lon="7.588220000">
        <ele>438.0</ele>
        <time>2010-12-10T02:19:27</time>
        <extensions><speed>7.58</speed></extensions>
      </trkpt>
      <trkpt lat="49.145889000" lon="7.588140000">
        <ele>437.0</ele>
        <time>2010-12-10T02:19:50</time>
        <extensions><speed>8.32</speed></extensions>
      </trkpt>
      <trkpt lat="49.138260000" lon="7.593720000">
        <ele>449.0</ele>
        <time>2010-12-10T02:22:29</time>
        <extensions><speed>8.32</speed></extensions>
      </trkpt>
      <trkpt lat="49.136959000" lon="7.593550000">
        <ele>439.0</ele>
        <time>2010-12-10T02:22:46</time>
        <extensions><speed>8.32</speed></extensions>
      </trkpt>
      <trkpt lat="49.134830000" lon="7.592550000">
        <ele>432.0</ele>
        <time>2010-12-10T02:23:16</time>
        <extensions><speed>8.32</speed></extensions>
      </trkpt>
      <trkpt lat="49.134312000" lon="7.591680000">
        <ele>429.0</ele>
        <time>2010-12-10T02:23:26</time>
        <extensions><speed>8.31</speed></extensions>
      </trkpt>
      <trkpt lat="49.133690000" lon="7.591230000">
        <ele>426.0</ele>
        <time>2010-12-10T02:23:35</time>
        <extensions><speed>8.32</speed></extensions>
      </trkpt>
      <trkpt lat="49.133160000" lon="7.590510000">
        <ele>424.0</ele>
        <time>2010-12-10T02:23:45</time>
        <extensions><speed>8.32</speed></extensions>
      </trkpt>
      <trkpt lat="49.132790000" lon="7.588920000">
        <ele>409.0</ele>
        <time>2010-12-10T02:24:00</time>
        <extensions><speed>8.35</speed></extensions>
      </trkpt>
      <trkpt lat="49.132679000" lon="7.587730000">
        <ele>405.0</ele>
        <time>2010-12-10T02:24:11</time>
        <extensions><speed>8.33</speed></extensions>
      </trkpt>
      <trkpt lat="49.132500000" lon="7.587610000">
        <ele>405.0</ele>
        <time>2010-12-10T02:24:14</time>
        <extensions><speed>8.32</speed></extensions>
      </trkpt>
      <trkpt lat="49.132141000" lon="7.586070000">
        <ele>402.0</ele>
        <time>2010-12-10T02:24:28</time>
        <extensions><speed>3.06</speed></extensions>
      </trkpt>
      <trkpt lat="49.131950000" lon="7.584600000">
        <ele>411.0</ele>
        <time>2010-12-10T02:25:04</time>
        <extensions><speed>3.06</speed></extensions>
      </trkpt>
      <trkpt lat="49.133148000" lon="7.582020000">
        <ele>423.0</ele>
        <time>2010-12-10T02:26:02</time>
        <extensions><speed>8.31</speed></extensions>
      </trkpt>
      <trkpt lat="49.133511000" lon="7.581680000">
        <ele>423.0</ele>
        <time>2010-12-10T02:26:08</time>
        <extensions><speed>8.32</speed></extensions>
      </trkpt>
      <trkpt lat="49.135349000" lon="7.578460000">
        <ele>432.0</ele>
        <time>2010-12-10T02:27:07</time>
        <extensions><speed>8.32</speed></extensions>
      </trkpt>
      <trkpt lat="49.138229000" lon="7.574940000">
        <ele>423.0</ele>
        <time>2010-12-10T02:27:56</time>
        <extensions><speed>8.32</speed></extensions>
      </trkpt>
      <trkpt lat="49.136681000" lon="7.573740000">
        <ele>414.0</ele>
        <time>2010-12-10T02:28:19</time>
        <extensions><speed>8.32</speed></extensions>
      </trkpt>
      <trkpt lat="49.134041000" lon="7.569740000">
        <ele>432.0</ele>
        <time>2010-12-10T02:29:57</time>
        <extensions><speed>8.32</speed></extensions>
      </trkpt>
      <trkpt lat="49.131142000" lon="7.566510000">
        <ele>431.0</ele>
        <time>2010-12-10T02:30:45</time>
        <extensions><speed>7.64</speed></extensions>
      </trkpt>
      <trkpt lat="49.129650000" lon="7.565130000">
        <ele>431.0</ele>
        <time>2010-12-10T02:31:10</time>
        <extensions><speed>7.65</speed></extensions>
      </trkpt>
      <trkpt lat="49.130058000" lon="7.563960000">
        <ele>427.0</ele>
        <time>2010-12-10T02:31:22</time>
        <extensions><speed>8.32</speed></extensions>
      </trkpt>
      <trkpt lat="49.131859000" lon="7.561580000">
        <ele>412.0</ele>
        <time>2010-12-10T02:31:54</time>
        <extensions><speed>8.32</speed></extensions>
      </trkpt>
      <trkpt lat="49.133549000" lon="7.558400000">
        <ele>410.0</ele>
        <time>2010-12-10T02:32:46</time>
        <extensions><speed>4.19</speed></extensions>
      </trkpt>
      <trkpt lat="49.134190000" lon="7.556180000">
        <ele>412.0</ele>
        <time>2010-12-10T02:33:18</time>
        <extensions><speed>8.31</speed></extensions>
      </trkpt>
      <trkpt lat="49.134480000" lon="7.554380000">
        <ele>412.0</ele>
        <time>2010-12-10T02:33:35</time>
        <extensions><speed>8.32</speed></extensions>
      </trkpt>
      <trkpt lat="49.134472000" lon="7.553450000">
        <ele>411.0</ele>
        <time>2010-12-10T02:33:43</time>
        <extensions><speed>8.31</speed></extensions>
      </trkpt>
      <trkpt lat="49.133270000" lon="7.546610000">
        <ele>398.0</ele>
        <time>2010-12-10T02:34:45</time>
        <extensions><speed>8.32</speed></extensions>
      </trkpt>
      <trkpt lat="49.132309000" lon="7.543350000">
        <ele>372.0</ele>
        <time>2010-12-10T02:35:16</time>
        <extensions><speed>8.32</speed></extensions>
      </trkpt>
      <trkpt lat="49.130909000" lon="7.540280000">
        <ele>344.0</ele>
        <time>2010-12-10T02:35:49</time>
        <extensions><speed>8.31</speed></extensions>
      </trkpt>
      <trkpt lat="49.130211000" lon="7.540360000">
        <ele>341.0</ele>
        <time>2010-12-10T02:35:58</time>
        <extensions><speed>8.32</speed></extensions>
      </trkpt>
      <trkpt lat="49.129879000" lon="7.540680000">
        <ele>340.0</ele>
        <time>2010-12-10T02:36:04</time>
        <extensions><speed>8.33</speed></extensions>
      </trkpt>
      <trkpt lat="49.129711000" lon="7.541080000">
        <ele>339.0</ele>
        <time>2010-12-10T02:36:08</time>
        <extensions><speed>8.31</speed></extensions>
      </trkpt>
      <trkpt lat="49.129601000" lon="7.542600000">
        <ele>335.0</ele>
        <time>2010-12-10T02:36:21</time>
        <extensions><speed>8.31</speed></extensions>
      </trkpt>
      <trkpt lat="49.129768000" lon="7.543540000">
        <ele>331.0</ele>
        <time>2010-12-10T02:36:30</time>
        <extensions><speed>8.31</speed></extensions>
      </trkpt>
      <trkpt lat="49.130959000" lon="7.544700000">
        <ele>318.0</ele>
        <time>2010-12-10T02:36:49</time>
        <extensions><speed>8.34</speed></extensions>
      </trkpt>
      <trkpt lat="49.130890000" lon="7.544860000">
        <ele>315.0</ele>
        <time>2010-12-10T02:36:51</time>
        <extensions><speed>8.34</speed></extensions>
      </trkpt>
      <trkpt lat="49.130348000" lon="7.544580000">
        <ele>305.0</ele>
        <time>2010-12-10T02:36:58</time>
        <extensions><speed>8.32</speed></extensions>
      </trkpt>
      <trkpt lat="49.129398000" lon="7.544740000">
        <ele>291.0</ele>
        <time>2010-12-10T02:37:11</time>
        <extensions><speed>8.32</speed></extensions>
      </trkpt>
      <trkpt lat="49.128658000" lon="7.543390000">
        <ele>290.0</ele>
        <time>2010-12-10T02:37:27</time>
        <extensions><speed>8.32</speed></extensions>
      </trkpt>
      <trkpt lat="49.127529000" lon="7.539020000">
        <ele>277.0</ele>
        <time>2010-12-10T02:38:08</time>
        <extensions><speed>3.60</speed></extensions>
      </trkpt>
      <trkpt lat="49.125870000" lon="7.539600000">
        <ele>289.0</ele>
        <time>2010-12-10T02:39:01</time>
        <extensions><speed>3.60</speed></extensions>
      </trkpt>
      <trkpt lat="49.124760000" lon="7.541030000">
        <ele>296.0</ele>
        <time>2010-12-10T02:39:36</time>
        <extensions><speed>5.00</speed></extensions>
      </trkpt>
      <trkpt lat="49.123402000" lon="7.538740000">
        <ele>306.0</ele>
        <time>2010-12-10T02:40:28</time>
        <extensions><speed>4.03</speed></extensions>
      </trkpt>
      <trkpt lat="49.122929000" lon="7.536680000">
        <ele>319.0</ele>
        <time>2010-12-10T02:41:20</time>
        <extensions><speed>2.45</speed></extensions>
      </trkpt>
      <trkpt lat="49.122372000" lon="7.535050000">
        <ele>336.0</ele>
        <time>2010-12-10T02:42:15</time>
        <extensions><speed>3.31</speed></extensions>
      </trkpt>
      <trkpt lat="49.122620000" lon="7.534580000">
        <ele>339.0</ele>
        <time>2010-12-10T02:42:28</time>
        <extensions><speed>3.30</speed></extensions>
      </trkpt>
      <trkpt lat="49.123310000" lon="7.534860000">
        <ele>345.0</ele>
        <time>2010-12-10T02:42:52</time>
        <extensions><speed>3.31</speed></extensions>
      </trkpt>
      <trkpt lat="49.123699000" lon="7.534750000">
        <ele>348.0</ele>
        <time>2010-12-10T02:43:05</time>
        <extensions><speed>3.31</speed></extensions>
      </trkpt>
      <trkpt lat="49.124500000" lon="7.536650000">
        <ele>353.0</ele>
        <time>2010-12-10T02:43:36</time>
        <extensions><speed>7.02</speed></extensions>
      </trkpt>
      <trkpt lat="49.124870000" lon="7.536840000">
        <ele>353.0</ele>
        <time>2010-12-10T02:43:42</time>
        <extensions><speed>7.03</speed></extensions>
      </trkpt>
      <trkpt lat="49.125240000" lon="7.536560000">
        <ele>354.0</ele>
        <time>2010-12-10T02:43:49</time>
        <extensions><speed>2.85</speed></extensions>
      </trkpt>
      <trkpt lat="49.125340000" lon="7.535610000">
        <ele>360.0</ele>
        <time>2010-12-10T02:44:14</time>
        <extensions><speed>2.85</speed></extensions>
      </trkpt>
      <trkpt lat="49.125050000" lon="7.534650000">
        <ele>368.0</ele>
        <time>2010-12-10T02:44:41</time>
        <extensions><speed>2.85</speed></extensions>
      </trkpt>
      <trkpt lat="49.124962000" lon="7.533710000">
        <ele>375.0</ele>
        <time>2010-12-10T02:45:06</time>
        <extensions><speed>4.76</speed></extensions>
      </trkpt>
      <trkpt lat="49.125198000" lon="7.530390000">
        <ele>382.0</ele>
        <time>2010-12-10T02:45:54</time>
        <extensions><speed>8.32</speed></extensions>
      </trkpt>
      <trkpt lat="49.124901000" lon="7.528980000">
        <ele>380.0</ele>
        <time>2010-12-10T02:46:07</time>
        <extensions><speed>8.30</speed></extensions>
      </trkpt>
      <trkpt lat="49.124729000" lon="7.528860000">
        <ele>380.0</ele>
        <time>2010-12-10T02:46:11</time>
        <extensions><speed>8.36</speed></extensions>
      </trkpt>
      <trkpt lat="49.124870000" lon="7.527600000">
        <ele>376.0</ele>
        <time>2010-12-10T02:46:23</time>
        <extensions><speed>8.30</speed></extensions>
      </trkpt>
      <trkpt lat="49.126190000" lon="7.527230000">
        <ele>372.0</ele>
        <time>2010-12-10T02:46:41</time>
        <extensions><speed>8.32</speed></extensions>
      </trkpt>
      <trkpt lat="49.127060000" lon="7.526300000">
        <ele>372.0</ele>
        <time>2010-12-10T02:46:55</time>
        <extensions><speed>8.34</speed></extensions>
      </trkpt>
      <trkpt lat="49.127300000" lon="7.524510000">
        <ele>365.0</ele>
        <time>2010-12-10T02:47:11</time>
        <extensions><speed>8.30</speed></extensions>
      </trkpt>
      <trkpt lat="49.127899000" lon="7.523470000">
        <ele>355.0</ele>
        <time>2010-12-10T02:47:23</time>
        <extensions><speed>8.33</speed></extensions>
      </trkpt>
      <trkpt lat="49.128078000" lon="7.522580000">
        <ele>349.0</ele>
        <time>2010-12-10T02:47:32</time>
        <extensions><speed>8.32</speed></extensions>
      </trkpt>
      <trkpt lat="49.128368000" lon="7.522030000">
        <ele>347.0</ele>
        <time>2010-12-10T02:47:38</time>
        <extensions><speed>8.28</speed></extensions>
      </trkpt>
      <trkpt lat="49.127941000" lon="7.521090000">
        <ele>342.0</ele>
        <time>2010-12-10T02:47:49</time>
        <extensions><speed>8.34</speed></extensions>
      </trkpt>
      <trkpt lat="49.129349000" lon="7.520460000">
        <ele>336.0</ele>
        <time>2010-12-10T02:48:09</time>
        <extensions><speed>8.33</speed></extensions>
      </trkpt>
      <trkpt lat="49.130451000" lon="7.519250000">
        <ele>319.0</ele>
        <time>2010-12-10T02:48:27</time>
        <extensions><speed>8.31</speed></extensions>
      </trkpt>
      <trkpt lat="49.131142000" lon="7.519100000">
        <ele>302.0</ele>
        <time>2010-12-10T02:48:36</time>
        <extensions><speed>8.31</speed></extensions>
      </trkpt>
      <trkpt lat="49.130939000" lon="7.518770000">
        <ele>294.0</ele>
        <time>2010-12-10T02:48:41</time>
        <extensions><speed>8.31</speed></extensions>
      </trkpt>
      <trkpt lat="49.129349000" lon="7.518850000">
        <ele>286.0</ele>
        <time>2010-12-10T02:49:03</time>
        <extensions><speed>8.32</speed></extensions>
      </trkpt>
      <trkpt lat="49.131279000" lon="7.518090000">
        <ele>283.0</ele>
        <time>2010-12-10T02:49:29</time>
        <extensions><speed>8.31</speed></extensions>
      </trkpt>
      <trkpt lat="49.131531000" lon="7.518130000">
        <ele>282.0</ele>
        <time>2010-12-10T02:49:33</time>
        <extensions><speed>8.29</speed></extensions>
      </trkpt>
      <trkpt lat="49.131981000" lon="7.518640000">
        <ele>284.0</ele>
        <time>2010-12-10T02:49:47</time>
        <extensions><speed>3.02</speed></extensions>
      </trkpt>
      <trkpt lat="49.134380000" lon="7.513980000">
        <ele>319.0</ele>
        <time>2010-12-10T02:52:04</time>
        <extensions><speed>8.33</speed></extensions>
      </trkpt>
      <trkpt lat="49.134411000" lon="7.512690000">
        <ele>317.0</ele>
        <time>2010-12-10T02:52:15</time>
        <extensions><speed>8.30</speed></extensions>
      </trkpt>
      <trkpt lat="49.134560000" lon="7.512210000">
        <ele>316.0</ele>
        <time>2010-12-10T02:52:20</time>
        <extensions><speed>8.31</speed></extensions>
      </trkpt>
      <trkpt lat="49.135029000" lon="7.512140000">
        <ele>315.0</ele>
        <time>2010-12-10T02:52:26</time>
        <extensions><speed>8.31</speed></extensions>
      </trkpt>
      <trkpt lat="49.135921000" lon="7.512880000">
        <ele>314.0</ele>
        <time>2010-12-10T02:52:40</time>
        <extensions><speed>8.31</speed></extensions>
      </trkpt>
      <trkpt lat="49.136230000" lon="7.512810000">
        <ele>313.0</ele>
        <time>2010-12-10T02:52:44</time>
        <extensions><speed>8.31</speed></extensions>
      </trkpt>
      <trkpt lat="49.136600000" lon="7.513030000">
        <ele>313.0</ele>
        <time>2010-12-10T02:52:51</time>
        <extensions><speed>2.25</speed></extensions>
      </trkpt>
      <trkpt lat="49.136711000" lon="7.512710000">
        <ele>317.0</ele>
        <time>2010-12-10T02:53:05</time>
        <extensions><speed>2.25</speed></extensions>
      </trkpt>
      <trkpt lat="49.136509000" lon="7.512410000">
        <ele>322.0</ele>
        <time>2010-12-10T02:53:19</time>
        <extensions><speed>2.26</speed></extensions>
      </trkpt>
      <trkpt lat="49.135658000" lon="7.512370000">
        <ele>334.0</ele>
        <time>2010-12-10T02:54:01</time>
        <extensions><speed>2.26</speed></extensions>
      </trkpt>
      <trkpt lat="49.134651000" lon="7.511100000">
        <ele>341.0</ele>
        <time>2010-12-10T02:54:35</time>
        <extensions><speed>6.42</speed></extensions>
      </trkpt>
      <trkpt lat="49.134209000" lon="7.511030000">
        <ele>342.0</ele>
        <time>2010-12-10T02:54:43</time>
        <extensions><speed>6.42</speed></extensions>
      </trkpt>
      <trkpt lat="49.133770000" lon="7.511630000">
        <ele>344.0</ele>
        <time>2010-12-10T02:54:55</time>
        <extensions><speed>4.43</speed></extensions>
      </trkpt>
      <trkpt lat="49.133469000" lon="7.513560000">
        <ele>350.0</ele>
        <time>2010-12-10T02:55:27</time>
        <extensions><speed>4.43</speed></extensions>
      </trkpt>
      <trkpt lat="49.132832000" lon="7.514620000">
        <ele>355.0</ele>
        <time>2010-12-10T02:55:51</time>
        <extensions><speed>7.15</speed></extensions>
      </trkpt>
      <trkpt lat="49.132431000" lon="7.514870000">
        <ele>355.0</ele>
        <time>2010-12-10T02:55:58</time>
        <extensions><speed>7.16</speed></extensions>
      </trkpt>
      <trkpt lat="49.131908000" lon="7.514310000">
        <ele>355.0</ele>
        <time>2010-12-10T02:56:08</time>
        <extensions><speed>7.15</speed></extensions>
      </trkpt>
      <trkpt lat="49.130749000" lon="7.512250000">
        <ele>364.0</ele>
        <time>2010-12-10T02:56:53</time>
        <extensions><speed>2.69</speed></extensions>
      </trkpt>
      <trkpt lat="49.129108000" lon="7.511670000">
        <ele>379.0</ele>
        <time>2010-12-10T02:57:54</time>
        <extensions><speed>8.31</speed></extensions>
      </trkpt>
      <trkpt lat="49.128571000" lon="7.510190000">
        <ele>375.0</ele>
        <time>2010-12-10T02:58:10</time>
        <extensions><speed>8.33</speed></extensions>
      </trkpt>
      <trkpt lat="49.127079000" lon="7.510410000">
        <ele>379.0</ele>
        <time>2010-12-10T02:58:44</time>
        <extensions><speed>4.39</speed></extensions>
      </trkpt>
      <trkpt lat="49.126598000" lon="7.511160000">
        <ele>382.0</ele>
        <time>2010-12-10T02:59:01</time>
        <extensions><speed>8.34</speed></extensions>
      </trkpt>
      <trkpt lat="49.126179000" lon="7.511010000">
        <ele>382.0</ele>
        <time>2010-12-10T02:59:07</time>
        <extensions><speed>8.30</speed></extensions>
      </trkpt>
      <trkpt lat="49.125641000" lon="7.511330000">
        <ele>381.0</ele>
        <time>2010-12-10T02:59:15</time>
        <extensions><speed>8.32</speed></extensions>
      </trkpt>
      <trkpt lat="49.124229000" lon="7.509590000">
        <ele>387.0</ele>
        <time>2010-12-10T02:59:57</time>
        <extensions><speed>2.47</speed></extensions>
      </trkpt>
      <trkpt lat="49.124020000" lon="7.507720000">
        <ele>404.0</ele>
        <time>2010-12-10T03:00:54</time>
        <extensions><speed>6.12</speed></extensions>
      </trkpt>
      <trkpt lat="49.123760000" lon="7.507160000">
        <ele>404.0</ele>
        <time>2010-12-10T03:01:02</time>
        <extensions><speed>6.12</speed></extensions>
      </trkpt>
      <trkpt lat="49.122559000" lon="7.505650000">
        <ele>408.0</ele>
        <time>2010-12-10T03:01:30</time>
        <extensions><speed>8.29</speed></extensions>
      </trkpt>
      <trkpt lat="49.120911000" lon="7.500760000">
        <ele>402.0</ele>
        <time>2010-12-10T03:02:18</time>
        <extensions><speed>8.32</speed></extensions>
      </trkpt>
      <trkpt lat="49.121262000" lon="7.497080000">
        <ele>379.0</ele>
        <time>2010-12-10T03:02:51</time>
        <extensions><speed>8.32</speed></extensions>
      </trkpt>
      <trkpt lat="49.121460000" lon="7.496840000">
        <ele>372.0</ele>
        <time>2010-12-10T03:02:55</time>
        <extensions><speed>8.28</speed></extensions>
      </trkpt>
      <trkpt lat="49.122379000" lon="7.496650000">
        <ele>371.0</ele>
        <time>2010-12-10T03:03:09</time>
        <extensions><speed>7.60</speed></extensions>
      </trkpt>
      <trkpt lat="49.122299000" lon="7.494870000">
        <ele>369.0</ele>
        <time>2010-12-10T03:03:26</time>
        <extensions><speed>8.31</speed></extensions>
      </trkpt>
      <trkpt lat="49.121750000" lon="7.493560000">
        <ele>356.0</ele>
        <time>2010-12-10T03:03:40</time>
        <extensions><speed>8.32</speed></extensions>
      </trkpt>
      <trkpt lat="49.120838000" lon="7.492110000">
        <ele>340.0</ele>
        <time>2010-12-10T03:03:58</time>
        <extensions><speed>8.32</speed></extensions>
      </trkpt>
      <trkpt lat="49.117729000" lon="7.488240000">
        <ele>297.0</ele>
        <time>2010-12-10T03:04:51</time>
        <extensions><speed>8.33</speed></extensions>
      </trkpt>
      <trkpt lat="49.117550000" lon="7.486980000">
        <ele>291.0</ele>
        <time>2010-12-10T03:05:03</time>
        <extensions><speed>8.32</speed></extensions>
      </trkpt>
      <trkpt lat="49.117939000" lon="7.484930000">
        <ele>280.0</ele>
        <time>2010-12-10T03:05:21</time>
        <extensions><speed>8.31</speed></extensions>
      </trkpt>
      <trkpt lat="49.117939000" lon="7.483170000">
        <ele>269.0</ele>
        <time>2010-12-10T03:05:37</time>
        <extensions><speed>8.29</speed></extensions>
      </trkpt>
      <trkpt lat="49.117401000" lon="7.483930000">
        <ele>271.0</ele>
        <time>2010-12-10T03:05:55</time>
        <extensions><speed>4.05</speed></extensions>
      </trkpt>
      <trkpt lat="49.117062000" lon="7.484120000">
        <ele>273.0</ele>
        <time>2010-12-10T03:06:06</time>
        <extensions><speed>4.04</speed></extensions>
      </trkpt>
      <trkpt lat="49.116489000" lon="7.482870000">
        <ele>278.0</ele>
        <time>2010-12-10T03:06:32</time>
        <extensions><speed>8.32</speed></extensions>
      </trkpt>
      <trkpt lat="49.115391000" lon="7.482250000">
        <ele>271.0</ele>
        <time>2010-12-10T03:06:47</time>
        <extensions><speed>8.32</speed></extensions>
      </trkpt>
      <trkpt lat="49.114510000" lon="7.481430000">
        <ele>266.0</ele>
        <time>2010-12-10T03:07:02</time>
        <extensions><speed>5.46</speed></extensions>
      </trkpt>
      <trkpt lat="49.113361000" lon="7.481260000">
        <ele>269.0</ele>
        <time>2010-12-10T03:07:26</time>
        <extensions><speed>5.46</speed></extensions>
      </trkpt>
      <trkpt lat="49.112450000" lon="7.480410000">
        <ele>272.0</ele>
        <time>2010-12-10T03:07:46</time>
        <extensions><speed>6.71</speed></extensions>
      </trkpt>
      <trkpt lat="49.111389000" lon="7.478910000">
        <ele>274.0</ele>
        <time>2010-12-10T03:08:10</time>
        <extensions><speed>6.71</speed></extensions>
      </trkpt>
      <trkpt lat="49.109428000" lon="7.476990000">
        <ele>281.0</ele>
        <time>2010-12-10T03:08:58</time>
        <extensions><speed>7.07</speed></extensions>
      </trkpt>
      <trkpt lat="49.108059000" lon="7.476850000">
        <ele>282.0</ele>
        <time>2010-12-10T03:09:19</time>
        <extensions><speed>7.07</speed></extensions>
      </trkpt>
      <trkpt lat="49.105949000" lon="7.476990000">
        <ele>281.0</ele>
        <time>2010-12-10T03:09:51</time>
        <extensions><speed>8.34</speed></extensions>
      </trkpt>
      <trkpt lat="49.103828000" lon="7.478020000">
        <ele>274.0</ele>
        <time>2010-12-10T03:10:26</time>
        <extensions><speed>3.86</speed></extensions>
      </trkpt>
      <trkpt lat="49.101509000" lon="7.477200000">
        <ele>280.0</ele>
        <time>2010-12-10T03:11:24</time>
        <extensions><speed>8.32</speed></extensions>
      </trkpt>
      <trkpt lat="49.099491000" lon="7.475790000">
        <ele>274.0</ele>
        <time>2010-12-10T03:12:01</time>
        <extensions><speed>5.13</speed></extensions>
      </trkpt>
      <trkpt lat="49.098869000" lon="7.476140000">
        <ele>277.0</ele>
        <time>2010-12-10T03:12:15</time>
        <extensions><speed>5.13</speed></extensions>
      </trkpt>
      <trkpt lat="49.097019000" lon="7.478060000">
        <ele>280.0</ele>
        <time>2010-12-10T03:12:59</time>
        <extensions><speed>8.33</speed></extensions>
      </trkpt>
      <trkpt lat="49.095310000" lon="7.478340000">
        <ele>275.0</ele>
        <time>2010-12-10T03:13:23</time>
        <extensions><speed>6.07</speed></extensions>
      </trkpt>
      <trkpt lat="49.091640000" lon="7.479260000">
        <ele>284.0</ele>
        <time>2010-12-10T03:14:34</time>
        <extensions><speed>5.58</speed></extensions>
      </trkpt>
      <trkpt lat="49.090149000" lon="7.480850000">
        <ele>289.0</ele>
        <time>2010-12-10T03:15:10</time>
        <extensions><speed>8.34</speed></extensions>
      </trkpt>
      <trkpt lat="49.089771000" lon="7.481050000">
        <ele>287.0</ele>
        <time>2010-12-10T03:15:16</time>
        <extensions><speed>8.33</speed></extensions>
      </trkpt>
      <trkpt lat="49.089119000" lon="7.480600000">
        <ele>286.0</ele>
        <time>2010-12-10T03:15:26</time>
        <extensions><speed>8.31</speed></extensions>
      </trkpt>
      <trkpt lat="49.088459000" lon="7.479800000">
        <ele>284.0</ele>
        <time>2010-12-10T03:15:37</time>
        <extensions><speed>4.32</speed></extensions>
      </trkpt>
      <trkpt lat="49.088169000" lon="7.479800000">
        <ele>285.0</ele>
        <time>2010-12-10T03:15:45</time>
        <extensions><speed>4.32</speed></extensions>
      </trkpt>
      <trkpt lat="49.087650000" lon="7.480720000">
        <ele>289.0</ele>
        <time>2010-12-10T03:16:06</time>
        <extensions><speed>4.32</speed></extensions>
      </trkpt>
      <trkpt lat="49.087730000" lon="7.482260000">
        <ele>295.0</ele>
        <time>2010-12-10T03:16:32</time>
        <extensions><speed>8.31</speed></extensions>
      </trkpt>
      <trkpt lat="49.087551000" lon="7.482980000">
        <ele>293.0</ele>
        <time>2010-12-10T03:16:39</time>
        <extensions><speed>8.32</speed></extensions>
      </trkpt>
      <trkpt lat="49.085720000" lon="7.485250000">
        <ele>292.0</ele>
        <time>2010-12-10T03:17:22</time>
        <extensions><speed>3.89</speed></extensions>
      </trkpt>
      <trkpt lat="49.085232000" lon="7.484330000">
        <ele>297.0</ele>
        <time>2010-12-10T03:17:44</time>
        <extensions><speed>3.90</speed></extensions>
      </trkpt>
      <trkpt lat="49.084209000" lon="7.483510000">
        <ele>305.0</ele>
        <time>2010-12-10T03:18:17</time>
        <extensions><speed>5.24</speed></extensions>
      </trkpt>
      <trkpt lat="49.082039000" lon="7.480580000">
        <ele>314.0</ele>
        <time>2010-12-10T03:19:20</time>
        <extensions><speed>4.95</speed></extensions>
      </trkpt>
      <trkpt lat="49.080940000" lon="7.480060000">
        <ele>319.0</ele>
        <time>2010-12-10T03:19:46</time>
        <extensions><speed>4.94</speed></extensions>
      </trkpt>
      <trkpt lat="49.079880000" lon="7.480430000">
        <ele>313.0</ele>
        <time>2010-12-10T03:20:02</time>
        <extensions><speed>8.32</speed></extensions>
      </trkpt>
      <trkpt lat="49.077579000" lon="7.482530000">
        <ele>299.0</ele>
        <time>2010-12-10T03:20:46</time>
        <extensions><speed>3.93</speed></extensions>
      </trkpt>
      <trkpt lat="49.076519000" lon="7.483100000">
        <ele>306.0</ele>
        <time>2010-12-10T03:21:17</time>
        <extensions><speed>3.92</speed></extensions>
      </trkpt>
      <trkpt lat="49.074749000" lon="7.485490000">
        <ele>324.0</ele>
        <time>2010-12-10T03:22:32</time>
        <extensions><speed>4.78</speed></extensions>
      </trkpt>
      <trkpt lat="49.073818000" lon="7.485820000">
        <ele>327.0</ele>
        <time>2010-12-10T03:22:55</time>
        <extensions><speed>4.78</speed></extensions>
      </trkpt>
      <trkpt lat="49.072868000" lon="7.485490000">
        <ele>332.0</ele>
        <time>2010-12-10T03:23:17</time>
        <extensions><speed>8.32</speed></extensions>
      </trkpt>
      <trkpt lat="49.070080000" lon="7.481730000">
        <ele>330.0</ele>
        <time>2010-12-10T03:24:07</time>
        <extensions><speed>8.32</speed></extensions>
      </trkpt>
      <trkpt lat="49.067501000" lon="7.477610000">
        <ele>326.0</ele>
        <time>2010-12-10T03:24:57</time>
        <extensions><speed>8.32</speed></extensions>
      </trkpt>
      <trkpt lat="49.067070000" lon="7.476520000">
        <ele>324.0</ele>
        <time>2010-12-10T03:25:08</time>
        <extensions><speed>8.32</speed></extensions>
      </trkpt>
      <trkpt lat="49.066368000" lon="7.472700000">
        <ele>319.0</ele>
        <time>2010-12-10T03:25:43</time>
        <extensions><speed>8.32</speed></extensions>
      </trkpt>
      <trkpt lat="49.066002000" lon="7.471640000">
        <ele>316.0</ele>
        <time>2010-12-10T03:25:53</time>
        <extensions><speed>8.33</speed></extensions>
      </trkpt>
      <trkpt lat="49.062939000" lon="7.468370000">
        <ele>296.0</ele>
        <time>2010-12-10T03:26:44</time>
        <extensions><speed>8.31</speed></extensions>
      </trkpt>
      <trkpt lat="49.062538000" lon="7.467280000">
        <ele>293.0</ele>
        <time>2010-12-10T03:26:56</time>
        <extensions><speed>6.26</speed></extensions>
      </trkpt>
      <trkpt lat="49.061661000" lon="7.462100000">
        <ele>300.0</ele>
        <time>2010-12-10T03:27:58</time>
        <extensions><speed>5.79</speed></extensions>
      </trkpt>
      <trkpt lat="49.061089000" lon="7.459630000">
        <ele>304.0</ele>
        <time>2010-12-10T03:28:31</time>
        <extensions><speed>5.79</speed></extensions>
      </trkpt>
      <trkpt lat="49.059818000" lon="7.455730000">
        <ele>303.0</ele>
        <time>2010-12-10T03:29:11</time>
        <extensions><speed>8.32</speed></extensions>
      </trkpt>
      <trkpt lat="49.058350000" lon="7.452080000">
        <ele>301.0</ele>
        <time>2010-12-10T03:29:49</time>
        <extensions><speed>8.31</speed></extensions>
      </trkpt>
      <trkpt lat="49.056728000" lon="7.449530000">
        <ele>300.0</ele>
        <time>2010-12-10T03:30:22</time>
        <extensions><speed>7.50</speed></extensions>
      </trkpt>
      <trkpt lat="49.055710000" lon="7.447020000">
        <ele>302.0</ele>
        <time>2010-12-10T03:30:51</time>
        <extensions><speed>4.89</speed></extensions>
      </trkpt>
      <trkpt lat="49.054279000" lon="7.442790000">
        <ele>314.0</ele>
        <time>2010-12-10T03:32:05</time>
        <extensions><speed>7.57</speed></extensions>
      </trkpt>
      <trkpt lat="49.053860000" lon="7.438760000">
        <ele>312.0</ele>
        <time>2010-12-10T03:32:43</time>
        <extensions><speed>8.32</speed></extensions>
      </trkpt>
      <trkpt lat="49.054031000" lon="7.438040000">
        <ele>311.0</ele>
        <time>2010-12-10T03:32:51</time>
        <extensions><speed>8.29</speed></extensions>
      </trkpt>
      <trkpt lat="49.053799000" lon="7.437950000">
        <ele>310.0</ele>
        <time>2010-12-10T03:32:55</time>
        <extensions><speed>8.31</speed></extensions>
      </trkpt>
      <trkpt lat="49.053570000" lon="7.436490000">
        <ele>310.0</ele>
        <time>2010-12-10T03:33:08</time>
        <extensions><speed>8.31</speed></extensions>
      </trkpt>
      <trkpt lat="49.050301000" lon="7.429190000">
        <ele>306.0</ele>
        <time>2010-12-10T03:34:31</time>
        <extensions><speed>8.33</speed></extensions>
      </trkpt>
      <trkpt lat="49.049671000" lon="7.429350000">
        <ele>297.0</ele>
        <time>2010-12-10T03:34:40</time>
        <extensions><speed>8.32</speed></extensions>
      </trkpt>
      <trkpt lat="49.049728000" lon="7.428830000">
        <ele>292.0</ele>
        <time>2010-12-10T03:34:45</time>
        <extensions><speed>8.36</speed></extensions>
      </trkpt>
      <trkpt lat="49.048801000" lon="7.428220000">
        <ele>286.0</ele>
        <time>2010-12-10T03:35:01</time>
        <extensions><speed>5.73</speed></extensions>
      </trkpt>
      <trkpt lat="49.047501000" lon="7.426250000">
        <ele>291.0</ele>
        <time>2010-12-10T03:35:39</time>
        <extensions><speed>4.21</speed></extensions>
      </trkpt>
      <trkpt lat="49.045940000" lon="7.426630000">
        <ele>300.0</ele>
        <time>2010-12-10T03:36:20</time>
        <extensions><speed>7.32</speed></extensions>
      </trkpt>
      <trkpt lat="49.041569000" lon="7.428630000">
        <ele>302.0</ele>
        <time>2010-12-10T03:37:28</time>
        <extensions><speed>8.32</speed></extensions>
      </trkpt>
      <trkpt lat="49.039700000" lon="7.428540000">
        <ele>301.0</ele>
        <time>2010-12-10T03:37:54</time>
        <extensions><speed>5.98</speed></extensions>
      </trkpt>
      <trkpt lat="49.038170000" lon="7.429510000">
        <ele>305.0</ele>
        <time>2010-12-10T03:38:25</time>
        <extensions><speed>4.07</speed></extensions>
      </trkpt>
      <trkpt lat="49.029320000" lon="7.437490000">
        <ele>338.0</ele>
        <time>2010-12-10T03:42:03</time>
        <extensions><speed>6.24</speed></extensions>
      </trkpt>
      <trkpt lat="49.028931000" lon="7.438280000">
        <ele>339.0</ele>
        <time>2010-12-10T03:42:15</time>
        <extensions><speed>6.24</speed></extensions>
      </trkpt>
      <trkpt lat="49.028782000" lon="7.439790000">
        <ele>343.0</ele>
        <time>2010-12-10T03:42:37</time>
        <extensions><speed>4.10</speed></extensions>
      </trkpt>
      <trkpt lat="49.028481000" lon="7.440010000">
        <ele>345.0</ele>
        <time>2010-12-10T03:42:47</time>
        <extensions><speed>4.23</speed></extensions>
      </trkpt>
      <trkpt lat="49.027950000" lon="7.440060000">
        <ele>348.0</ele>
        <time>2010-12-10T03:43:01</time>
        <extensions><speed>4.23</speed></extensions>
      </trkpt>
      <trkpt lat="49.026932000" lon="7.439530000">
        <ele>354.0</ele>
        <time>2010-12-10T03:43:29</time>
        <extensions><speed>8.32</speed></extensions>
      </trkpt>
      <trkpt lat="49.026020000" lon="7.438760000">
        <ele>348.0</ele>
        <time>2010-12-10T03:43:43</time>
        <extensions><speed>8.32</speed></extensions>
      </trkpt>
      <trkpt lat="49.025169000" lon="7.436720000">
        <ele>341.0</ele>
        <time>2010-12-10T03:44:05</time>
        <extensions><speed>8.33</speed></extensions>
      </trkpt>
      <trkpt lat="49.024170000" lon="7.435790000">
        <ele>341.0</ele>
        <time>2010-12-10T03:44:20</time>
        <extensions><speed>8.32</speed></extensions>
      </trkpt>
      <trkpt lat="49.023701000" lon="7.434830000">
        <ele>341.0</ele>
        <time>2010-12-10T03:44:31</time>
        <extensions><speed>6.89</speed></extensions>
      </trkpt>
      <trkpt lat="49.022751000" lon="7.430890000">
        <ele>344.0</ele>
        <time>2010-12-10T03:45:15</time>
        <extensions><speed>7.57</speed></extensions>
      </trkpt>
      <trkpt lat="49.022369000" lon="7.430710000">
        <ele>344.0</ele>
        <time>2010-12-10T03:45:21</time>
        <extensions><speed>7.58</speed></extensions>
      </trkpt>
      <trkpt lat="49.022099000" lon="7.430840000">
        <ele>344.0</ele>
        <time>2010-12-10T03:45:25</time>
        <extensions><speed>7.58</speed></extensions>
      </trkpt>
      <trkpt lat="49.021240000" lon="7.431630000">
        <ele>345.0</ele>
        <time>2010-12-10T03:45:40</time>
        <extensions><speed>8.32</speed></extensions>
      </trkpt>
      <trkpt lat="49.020309000" lon="7.430860000">
        <ele>342.0</ele>
        <time>2010-12-10T03:45:54</time>
        <extensions><speed>8.32</speed></extensions>
      </trkpt>
      <trkpt lat="49.019032000" lon="7.429210000">
        <ele>339.0</ele>
        <time>2010-12-10T03:46:18</time>
        <extensions><speed>6.74</speed></extensions>
      </trkpt>
      <trkpt lat="49.018631000" lon="7.429030000">
        <ele>340.0</ele>
        <time>2010-12-10T03:46:25</time>
        <extensions><speed>6.74</speed></extensions>
      </trkpt>
      <trkpt lat="49.016911000" lon="7.429570000">
        <ele>342.0</ele>
        <time>2010-12-10T03:46:54</time>
        <extensions><speed>6.20</speed></extensions>
      </trkpt>
      <trkpt lat="49.015301000" lon="7.432060000">
        <ele>347.0</ele>
        <time>2010-12-10T03:47:36</time>
        <extensions><speed>5.27</speed></extensions>
      </trkpt>
      <trkpt lat="49.012211000" lon="7.435220000">
        <ele>357.0</ele>
        <time>2010-12-10T03:48:52</time>
        <extensions><speed>8.33</speed></extensions>
      </trkpt>
      <trkpt lat="49.011730000" lon="7.435190000">
        <ele>355.0</ele>
        <time>2010-12-10T03:48:58</time>
        <extensions><speed>8.32</speed></extensions>
      </trkpt>
      <trkpt lat="49.009869000" lon="7.433430000">
        <ele>347.0</ele>
        <time>2010-12-10T03:49:28</time>
        <extensions><speed>8.32</speed></extensions>
      </trkpt>
      <trkpt lat="49.008881000" lon="7.433310000">
        <ele>342.0</ele>
        <time>2010-12-10T03:49:41</time>
        <extensions><speed>8.32</speed></extensions>
      </trkpt>
      <trkpt lat="49.007938000" lon="7.433610000">
        <ele>337.0</ele>
        <time>2010-12-10T03:49:54</time>
        <extensions><speed>8.32</speed></extensions>
      </trkpt>
      <trkpt lat="49.007488000" lon="7.434010000">
        <ele>333.0</ele>
        <time>2010-12-10T03:50:01</time>
        <extensions><speed>8.33</speed></extensions>
      </trkpt>
      <trkpt lat="49.007481000" lon="7.434420000">
        <ele>331.0</ele>
        <time>2010-12-10T03:50:05</time>
        <extensions><speed>8.32</speed></extensions>
      </trkpt>
      <trkpt lat="49.008438000" lon="7.436740000">
        <ele>320.0</ele>
        <time>2010-12-10T03:50:29</time>
        <extensions><speed>8.32</speed></extensions>
      </trkpt>
      <trkpt lat="49.009930000" lon="7.439450000">
        <ele>316.0</ele>
        <time>2010-12-10T03:51:00</time>
        <extensions><speed>8.31</speed></extensions>
      </trkpt>
      <trkpt lat="49.010330000" lon="7.439960000">
        <ele>316.0</ele>
        <time>2010-12-10T03:51:06</time>
        <extensions><speed>8.32</speed></extensions>
      </trkpt>
      <trkpt lat="49.011131000" lon="7.440120000">
        <ele>316.0</ele>
        <time>2010-12-10T03:51:17</time>
        <extensions><speed>8.32</speed></extensions>
      </trkpt>
      <trkpt lat="49.011280000" lon="7.440390000">
        <ele>316.0</ele>
        <time>2010-12-10T03:51:21</time>
        <extensions><speed>8.32</speed></extensions>
      </trkpt>
      <trkpt lat="49.011902000" lon="7.441640000">
        <ele>312.0</ele>
        <time>2010-12-10T03:51:34</time>
        <extensions><speed>8.32</speed></extensions>
      </trkpt>
      <trkpt lat="49.012291000" lon="7.443310000">
        <ele>302.0</ele>
        <time>2010-12-10T03:51:50</time>
        <extensions><speed>8.32</speed></extensions>
      </trkpt>
      <trkpt lat="49.012890000" lon="7.444980000">
        <ele>294.0</ele>
        <time>2010-12-10T03:52:07</time>
        <extensions><speed>8.32</speed></extensions>
      </trkpt>
      <trkpt lat="49.012859000" lon="7.446190000">
        <ele>291.0</ele>
        <time>2010-12-10T03:52:17</time>
        <extensions><speed>8.32</speed></extensions>
      </trkpt>
      <trkpt lat="49.012581000" lon="7.446700000">
        <ele>290.0</ele>
        <time>2010-12-10T03:52:23</time>
        <extensions><speed>8.32</speed></extensions>
      </trkpt>
      <trkpt lat="49.009411000" lon="7.448590000">
        <ele>267.0</ele>
        <time>2010-12-10T03:53:09</time>
        <extensions><speed>8.31</speed></extensions>
      </trkpt>
      <trkpt lat="49.008850000" lon="7.448500000">
        <ele>263.0</ele>
        <time>2010-12-10T03:53:16</time>
        <extensions><speed>8.32</speed></extensions>
      </trkpt>
      <trkpt lat="49.005989000" lon="7.446660000">
        <ele>252.0</ele>
        <time>2010-12-10T03:53:58</time>
        <extensions><speed>8.32</speed></extensions>
      </trkpt>
      <trkpt lat="49.004608000" lon="7.445200000">
        <ele>248.0</ele>
        <time>2010-12-10T03:54:20</time>
        <extensions><speed>8.32</speed></extensions>
      </trkpt>
      <trkpt lat="49.003792000" lon="7.444940000">
        <ele>247.0</ele>
        <time>2010-12-10T03:54:31</time>
        <extensions><speed>8.32</speed></extensions>
      </trkpt>
      <trkpt lat="49.002811000" lon="7.443950000">
        <ele>246.0</ele>
        <time>2010-12-10T03:54:47</time>
        <extensions><speed>8.31</speed></extensions>
      </trkpt>
      <trkpt lat="49.001629000" lon="7.444080000">
        <ele>246.0</ele>
        <time>2010-12-10T03:55:03</time>
        <extensions><speed>5.13</speed></extensions>
      </trkpt>
      <trkpt lat="49.000671000" lon="7.443740000">
        <ele>249.0</ele>
        <time>2010-12-10T03:55:24</time>
        <extensions><speed>5.14</speed></extensions>
      </trkpt>
      <trkpt lat="48.999630000" lon="7.443830000">
        <ele>253.0</ele>
        <time>2010-12-10T03:55:47</time>
        <extensions><speed>8.31</speed></extensions>
      </trkpt>
      <trkpt lat="48.998051000" lon="7.443270000">
        <ele>252.0</ele>
        <time>2010-12-10T03:56:09</time>
        <extensions><speed>8.31</speed></extensions>
      </trkpt>
      <trkpt lat="48.997292000" lon="7.443350000">
        <ele>250.0</ele>
        <time>2010-12-10T03:56:19</time>
        <extensions><speed>8.32</speed></extensions>
      </trkpt>
      <trkpt lat="48.996250000" lon="7.443100000">
        <ele>248.0</ele>
        <time>2010-12-10T03:56:33</time>
        <extensions><speed>8.31</speed></extensions>
      </trkpt>
      <trkpt lat="48.995350000" lon="7.443570000">
        <ele>248.0</ele>
        <time>2010-12-10T03:56:49</time>
        <extensions><speed>5.34</speed></extensions>
      </trkpt>
      <trkpt lat="48.994110000" lon="7.443440000">
        <ele>252.0</ele>
        <time>2010-12-10T03:57:15</time>
        <extensions><speed>5.34</speed></extensions>
      </trkpt>
      <trkpt lat="48.993519000" lon="7.443180000">
        <ele>254.0</ele>
        <time>2010-12-10T03:57:27</time>
        <extensions><speed>8.32</speed></extensions>
      </trkpt>
      <trkpt lat="48.991741000" lon="7.441680000">
        <ele>232.0</ele>
        <time>2010-12-10T03:57:55</time>
        <extensions><speed>3.72</speed></extensions>
      </trkpt>
      <trkpt lat="48.990761000" lon="7.441290000">
        <ele>239.0</ele>
        <time>2010-12-10T03:58:25</time>
        <extensions><speed>3.72</speed></extensions>
      </trkpt>
      <trkpt lat="48.990452000" lon="7.441680000">
        <ele>241.0</ele>
        <time>2010-12-10T03:58:38</time>
        <extensions><speed>3.72</speed></extensions>
      </trkpt>
      <trkpt lat="48.990421000" lon="7.442350000">
        <ele>245.0</ele>
        <time>2010-12-10T03:58:51</time>
        <extensions><speed>8.32</speed></extensions>
      </trkpt>
      <trkpt lat="48.990150000" lon="7.442970000">
        <ele>238.0</ele>
        <time>2010-12-10T03:58:58</time>
        <extensions><speed>8.32</speed></extensions>
      </trkpt>
      <trkpt lat="48.989269000" lon="7.444070000">
        <ele>229.0</ele>
        <time>2010-12-10T03:59:16</time>
        <extensions><speed>5.96</speed></extensions>
      </trkpt>
      <trkpt lat="48.988800000" lon="7.444080000">
        <ele>230.0</ele>
        <time>2010-12-10T03:59:25</time>
        <extensions><speed>5.96</speed></extensions>
      </trkpt>
      <trkpt lat="48.988419000" lon="7.443720000">
        <ele>231.0</ele>
        <time>2010-12-10T03:59:33</time>
        <extensions><speed>5.96</speed></extensions>
      </trkpt>
      <trkpt lat="48.987640000" lon="7.442180000">
        <ele>231.0</ele>
        <time>2010-12-10T03:59:53</time>
        <extensions><speed>8.31</speed></extensions>
      </trkpt>
      <trkpt lat="48.987091000" lon="7.442350000">
        <ele>231.0</ele>
        <time>2010-12-10T04:00:01</time>
        <extensions><speed>8.32</speed></extensions>
      </trkpt>
      <trkpt lat="48.986820000" lon="7.443910000">
        <ele>230.0</ele>
        <time>2010-12-10T04:00:15</time>
        <extensions><speed>8.33</speed></extensions>
      </trkpt>
      <trkpt lat="48.984718000" lon="7.446440000">
        <ele>232.0</ele>
        <time>2010-12-10T04:00:56</time>
        <extensions><speed>5.38</speed></extensions>
      </trkpt>
      <trkpt lat="48.984390000" lon="7.447000000">
        <ele>233.0</ele>
        <time>2010-12-10T04:01:07</time>
        <extensions><speed>5.38</speed></extensions>
      </trkpt>
      <trkpt lat="48.983860000" lon="7.448930000">
        <ele>234.0</ele>
        <time>2010-12-10T04:01:30</time>
        <extensions><speed>8.32</speed></extensions>
      </trkpt>
      <trkpt lat="48.981579000" lon="7.452710000">
        <ele>237.0</ele>
        <time>2010-12-10T04:02:35</time>
        <extensions><speed>3.73</speed></extensions>
      </trkpt>
      <trkpt lat="48.980450000" lon="7.450300000">
        <ele>237.0</ele>
        <time>2010-12-10T04:03:15</time>
        <extensions><speed>8.32</speed></extensions>
      </trkpt>
      <trkpt lat="48.978680000" lon="7.447990000">
        <ele>238.0</ele>
        <time>2010-12-10T04:03:57</time>
        <extensions><speed>5.48</speed></extensions>
      </trkpt>
      <trkpt lat="48.976540000" lon="7.441460000">
        <ele>243.0</ele>
        <time>2010-12-10T04:05:12</time>
        <extensions><speed>8.32</speed></extensions>
      </trkpt>
      <trkpt lat="48.974590000" lon="7.438370000">
        <ele>244.0</ele>
        <time>2010-12-10T04:05:57</time>
        <extensions><speed>5.25</speed></extensions>
      </trkpt>
      <trkpt lat="48.972679000" lon="7.436140000">
        <ele>251.0</ele>
        <time>2010-12-10T04:06:46</time>
        <extensions><speed>8.28</speed></extensions>
      </trkpt>
      <trkpt lat="48.971630000" lon="7.436610000">
        <ele>251.0</ele>
        <time>2010-12-10T04:07:01</time>
        <extensions><speed>8.31</speed></extensions>
      </trkpt>
      <trkpt lat="48.970539000" lon="7.436280000">
        <ele>253.0</ele>
        <time>2010-12-10T04:07:21</time>
        <extensions><speed>4.24</speed></extensions>
      </trkpt>
      <trkpt lat="48.969730000" lon="7.436380000">
        <ele>257.0</ele>
        <time>2010-12-10T04:07:42</time>
        <extensions><speed>4.24</speed></extensions>
      </trkpt>
      <trkpt lat="48.966629000" lon="7.434360000">
        <ele>282.0</ele>
        <time>2010-12-10T04:09:27</time>
        <extensions><speed>2.12</speed></extensions>
      </trkpt>
      <trkpt lat="48.965778000" lon="7.434160000">
        <ele>296.0</ele>
        <time>2010-12-10T04:10:12</time>
        <extensions><speed>2.12</speed></extensions>
      </trkpt>
      <trkpt lat="48.965580000" lon="7.434550000">
        <ele>302.0</ele>
        <time>2010-12-10T04:10:30</time>
        <extensions><speed>2.09</speed></extensions>
      </trkpt>
      <trkpt lat="48.966209000" lon="7.436660000">
        <ele>327.0</ele>
        <time>2010-12-10T04:11:51</time>
        <extensions><speed>2.09</speed></extensions>
      </trkpt>
      <trkpt lat="48.966160000" lon="7.437730000">
        <ele>335.0</ele>
        <time>2010-12-10T04:12:22</time>
        <extensions><speed>8.32</speed></extensions>
      </trkpt>
      <trkpt lat="48.966740000" lon="7.439180000">
        <ele>330.0</ele>
        <time>2010-12-10T04:12:37</time>
        <extensions><speed>8.31</speed></extensions>
      </trkpt>
      <trkpt lat="48.966591000" lon="7.439660000">
        <ele>329.0</ele>
        <time>2010-12-10T04:12:42</time>
        <extensions><speed>8.32</speed></extensions>
      </trkpt>
      <trkpt lat="48.965389000" lon="7.440490000">
        <ele>348.0</ele>
        <time>2010-12-10T04:13:47</time>
        <extensions><speed>2.06</speed></extensions>
      </trkpt>
      <trkpt lat="48.965179000" lon="7.441780000">
        <ele>359.0</ele>
        <time>2010-12-10T04:14:26</time>
        <extensions><speed>8.31</speed></extensions>
      </trkpt>
      <trkpt lat="48.963772000" lon="7.442490000">
        <ele>355.0</ele>
        <time>2010-12-10T04:14:46</time>
        <extensions><speed>8.32</speed></extensions>
      </trkpt>
      <trkpt lat="48.963310000" lon="7.443500000">
        <ele>351.0</ele>
        <time>2010-12-10T04:14:57</time>
        <extensions><speed>8.33</speed></extensions>
      </trkpt>
      <trkpt lat="48.963329000" lon="7.446150000">
        <ele>343.0</ele>
        <time>2010-12-10T04:15:20</time>
        <extensions><speed>8.31</speed></extensions>
      </trkpt>
      <trkpt lat="48.963871000" lon="7.448010000">
        <ele>331.0</ele>
        <time>2010-12-10T04:15:38</time>
        <extensions><speed>8.34</speed></extensions>
      </trkpt>
      <trkpt lat="48.964470000" lon="7.448740000">
        <ele>324.0</ele>
        <time>2010-12-10T04:15:49</time>
        <extensions><speed>8.32</speed></extensions>
      </trkpt>
      <trkpt lat="48.964489000" lon="7.449120000">
        <ele>323.0</ele>
        <time>2010-12-10T04:15:52</time>
        <extensions><speed>8.32</speed></extensions>
      </trkpt>
      <trkpt lat="48.963810000" lon="7.449500000">
        <ele>320.0</ele>
        <time>2010-12-10T04:16:02</time>
        <extensions><speed>8.32</speed></extensions>
      </trkpt>
      <trkpt lat="48.962780000" lon="7.449680000">
        <ele>317.0</ele>
        <time>2010-12-10T04:16:16</time>
        <extensions><speed>8.32</speed></extensions>
      </trkpt>
      <trkpt lat="48.960659000" lon="7.448610000">
        <ele>298.0</ele>
        <time>2010-12-10T04:16:46</time>
        <extensions><speed>8.31</speed></extensions>
      </trkpt>
      <trkpt lat="48.959679000" lon="7.448640000">
        <ele>294.0</ele>
        <time>2010-12-10T04:16:59</time>
        <extensions><speed>8.32</speed></extensions>
      </trkpt>
      <trkpt lat="48.959160000" lon="7.448390000">
        <ele>293.0</ele>
        <time>2010-12-10T04:17:07</time>
        <extensions><speed>8.32</speed></extensions>
      </trkpt>
      <trkpt lat="48.957870000" lon="7.446590000">
        <ele>287.0</ele>
        <time>2010-12-10T04:17:30</time>
        <extensions><speed>8.32</speed></extensions>
      </trkpt>
      <trkpt lat="48.957298000" lon="7.445990000">
        <ele>285.0</ele>
        <time>2010-12-10T04:17:39</time>
        <extensions><speed>8.32</speed></extensions>
      </trkpt>
      <trkpt lat="48.956600000" lon="7.445670000">
        <ele>284.0</ele>
        <time>2010-12-10T04:17:49</time>
        <extensions><speed>8.32</speed></extensions>
      </trkpt>
      <trkpt lat="48.956100000" lon="7.445640000">
        <ele>282.0</ele>
        <time>2010-12-10T04:17:56</time>
        <extensions><speed>8.32</speed></extensions>
      </trkpt>
      <trkpt lat="48.955002000" lon="7.445920000">
        <ele>279.0</ele>
        <time>2010-12-10T04:18:11</time>
        <extensions><speed>8.32</speed></extensions>
      </trkpt>
      <trkpt lat="48.954262000" lon="7.446360000">
        <ele>277.0</ele>
        <time>2010-12-10T04:18:21</time>
        <extensions><speed>8.32</speed></extensions>
      </trkpt>
      <trkpt lat="48.952980000" lon="7.446120000">
        <ele>275.0</ele>
        <time>2010-12-10T04:18:39</time>
        <extensions><speed>8.33</speed></extensions>
      </trkpt>
      <trkpt lat="48.952209000" lon="7.446490000">
        <ele>274.0</ele>
        <time>2010-12-10T04:18:49</time>
        <extensions><speed>6.96</speed></extensions>
      </trkpt>
      <trkpt lat="48.951130000" lon="7.446380000">
        <ele>275.0</ele>
        <time>2010-12-10T04:19:07</time>
        <extensions><speed>6.96</speed></extensions>
      </trkpt>
      <trkpt lat="48.949120000" lon="7.447540000">
        <ele>273.0</ele>
        <time>2010-12-10T04:19:38</time>
        <extensions><speed>8.32</speed></extensions>
      </trkpt>
      <trkpt lat="48.947861000" lon="7.449330000">
        <ele>265.0</ele>
        <time>2010-12-10T04:20:01</time>
        <extensions><speed>8.33</speed></extensions>
      </trkpt>
      <trkpt lat="48.946190000" lon="7.448060000">
        <ele>250.0</ele>
        <time>2010-12-10T04:20:26</time>
        <extensions><speed>6.22</speed></extensions>
      </trkpt>
      <trkpt lat="48.944981000" lon="7.447720000">
        <ele>252.0</ele>
        <time>2010-12-10T04:20:48</time>
        <extensions><speed>6.21</speed></extensions>
      </trkpt>
      <trkpt lat="48.943649000" lon="7.446950000">
        <ele>255.0</ele>
        <time>2010-12-10T04:21:13</time>
        <extensions><speed>8.33</speed></extensions>
      </trkpt>
      <trkpt lat="48.940781000" lon="7.446320000">
        <ele>240.0</ele>
        <time>2010-12-10T04:21:52</time>
        <extensions><speed>8.32</speed></extensions>
      </trkpt>
      <trkpt lat="48.940208000" lon="7.446620000">
        <ele>238.0</ele>
        <time>2010-12-10T04:22:00</time>
        <extensions><speed>8.32</speed></extensions>
      </trkpt>
      <trkpt lat="48.939201000" lon="7.448650000">
        <ele>234.0</ele>
        <time>2010-12-10T04:22:23</time>
        <extensions><speed>8.32</speed></extensions>
      </trkpt>
      <trkpt lat="48.937771000" lon="7.450610000">
        <ele>238.0</ele>
        <time>2010-12-10T04:23:04</time>
        <extensions><speed>4.09</speed></extensions>
      </trkpt>
      <trkpt lat="48.936352000" lon="7.454530000">
        <ele>240.0</ele>
        <time>2010-12-10T04:24:04</time>
        <extensions><speed>8.32</speed></extensions>
      </trkpt>
      <trkpt lat="48.936001000" lon="7.457770000">
        <ele>229.0</ele>
        <time>2010-12-10T04:24:33</time>
        <extensions><speed>8.32</speed></extensions>
      </trkpt>
      <trkpt lat="48.936069000" lon="7.459040000">
        <ele>225.0</ele>
        <time>2010-12-10T04:24:44</time>
        <extensions><speed>3.87</speed></extensions>
      </trkpt>
      <trkpt lat="48.935848000" lon="7.459640000">
        <ele>227.0</ele>
        <time>2010-12-10T04:24:57</time>
        <extensions><speed>3.87</speed></extensions>
      </trkpt>
      <trkpt lat="48.935570000" lon="7.460160000">
        <ele>230.0</ele>
        <time>2010-12-10T04:25:10</time>
        <extensions><speed>3.87</speed></extensions>
      </trkpt>
      <trkpt lat="48.934551000" lon="7.460920000">
        <ele>238.0</ele>
        <time>2010-12-10T04:25:42</time>
        <extensions><speed>8.32</speed></extensions>
      </trkpt>
      <trkpt lat="48.933910000" lon="7.462280000">
        <ele>236.0</ele>
        <time>2010-12-10T04:25:57</time>
        <extensions><speed>8.32</speed></extensions>
      </trkpt>
      <trkpt lat="48.932240000" lon="7.463810000">
        <ele>226.0</ele>
        <time>2010-12-10T04:26:24</time>
        <extensions><speed>8.32</speed></extensions>
      </trkpt>
      <trkpt lat="48.932671000" lon="7.463830000">
        <ele>224.0</ele>
        <time>2010-12-10T04:26:30</time>
        <extensions><speed>8.31</speed></extensions>
      </trkpt>
      <trkpt lat="48.933029000" lon="7.464110000">
        <ele>222.0</ele>
        <time>2010-12-10T04:26:36</time>
        <extensions><speed>8.33</speed></extensions>
      </trkpt>
      <trkpt lat="48.933819000" lon="7.465080000">
        <ele>218.0</ele>
        <time>2010-12-10T04:26:49</time>
        <extensions><speed>8.00</speed></extensions>
      </trkpt>
      <trkpt lat="48.933239000" lon="7.466160000">
        <ele>218.0</ele>
        <time>2010-12-10T04:27:02</time>
        <extensions><speed>8.00</speed></extensions>
      </trkpt>
      <trkpt lat="48.932308000" lon="7.471480000">
        <ele>219.0</ele>
        <time>2010-12-10T04:27:52</time>
        <extensions><speed>7.71</speed></extensions>
      </trkpt>
      <trkpt lat="48.932201000" lon="7.474940000">
        <ele>220.0</ele>
        <time>2010-12-10T04:28:25</time>
        <extensions><speed>8.32</speed></extensions>
      </trkpt>
      <trkpt lat="48.931999000" lon="7.476280000">
        <ele>219.0</ele>
        <time>2010-12-10T04:28:37</time>
        <extensions><speed>8.32</speed></extensions>
      </trkpt>
      <trkpt lat="48.932220000" lon="7.477880000">
        <ele>219.0</ele>
        <time>2010-12-10T04:28:51</time>
        <extensions><speed>6.95</speed></extensions>
      </trkpt>
      <trkpt lat="48.933022000" lon="7.479810000">
        <ele>220.0</ele>
        <time>2010-12-10T04:29:16</time>
        <extensions><speed>6.95</speed></extensions>
      </trkpt>
      <trkpt lat="48.933609000" lon="7.482350000">
        <ele>221.0</ele>
        <time>2010-12-10T04:29:42</time>
        <extensions><speed>8.32</speed></extensions>
      </trkpt>
      <trkpt lat="48.934582000" lon="7.489780000">
        <ele>215.0</ele>
        <time>2010-12-10T04:30:52</time>
        <extensions><speed>5.60</speed></extensions>
      </trkpt>
      <trkpt lat="48.934528000" lon="7.491760000">
        <ele>218.0</ele>
        <time>2010-12-10T04:31:18</time>
        <extensions><speed>5.60</speed></extensions>
      </trkpt>
      <trkpt lat="48.934170000" lon="7.493010000">
        <ele>221.0</ele>
        <time>2010-12-10T04:31:35</time>
        <extensions><speed>8.32</speed></extensions>
      </trkpt>
      <trkpt lat="48.933479000" lon="7.494060000">
        <ele>217.0</ele>
        <time>2010-12-10T04:31:48</time>
        <extensions><speed>8.31</speed></extensions>
      </trkpt>
      <trkpt lat="48.933102000" lon="7.494290000">
        <ele>216.0</ele>
        <time>2010-12-10T04:31:54</time>
        <extensions><speed>8.32</speed></extensions>
      </trkpt>
      <trkpt lat="48.932529000" lon="7.495880000">
        <ele>213.0</ele>
        <time>2010-12-10T04:32:10</time>
        <extensions><speed>8.32</speed></extensions>
      </trkpt>
      <trkpt lat="48.932461000" lon="7.498460000">
        <ele>208.0</ele>
        <time>2010-12-10T04:32:32</time>
        <extensions><speed>8.31</speed></extensions>
      </trkpt>
      <trkpt lat="48.932190000" lon="7.499280000">
        <ele>207.0</ele>
        <time>2010-12-10T04:32:40</time>
        <extensions><speed>7.83</speed></extensions>
      </trkpt>
      <trkpt lat="48.931122000" lon="7.499600000">
        <ele>207.0</ele>
        <time>2010-12-10T04:32:56</time>
        <extensions><speed>7.83</speed></extensions>
      </trkpt>
      <trkpt lat="48.929951000" lon="7.501630000">
        <ele>208.0</ele>
        <time>2010-12-10T04:33:21</time>
        <extensions><speed>7.99</speed></extensions>
      </trkpt>
      <trkpt lat="48.928650000" lon="7.503320000">
        <ele>208.0</ele>
        <time>2010-12-10T04:33:45</time>
        <extensions><speed>7.99</speed></extensions>
      </trkpt>
      <trkpt lat="48.926411000" lon="7.505350000">
        <ele>209.0</ele>
        <time>2010-12-10T04:34:21</time>
        <extensions><speed>6.96</speed></extensions>
      </trkpt>
      <trkpt lat="48.922909000" lon="7.511810000">
        <ele>215.0</ele>
        <time>2010-12-10T04:35:49</time>
        <extensions><speed>8.32</speed></extensions>
      </trkpt>
      <trkpt lat="48.919979000" lon="7.513780000">
        <ele>196.0</ele>
        <time>2010-12-10T04:36:32</time>
        <extensions><speed>6.65</speed></extensions>
      </trkpt>
      <trkpt lat="48.916458000" lon="7.519210000">
        <ele>203.0</ele>
        <time>2010-12-10T04:37:56</time>
        <extensions><speed>4.58</speed></extensions>
      </trkpt>
      <trkpt lat="48.914040000" lon="7.519350000">
        <ele>214.0</ele>
        <time>2010-12-10T04:38:54</time>
        <extensions><speed>8.32</speed></extensions>
      </trkpt>
      <trkpt lat="48.912819000" lon="7.521320000">
        <ele>203.0</ele>
        <time>2010-12-10T04:39:18</time>
        <extensions><speed>8.32</speed></extensions>
      </trkpt>
      <trkpt lat="48.912281000" lon="7.523120000">
        <ele>195.0</ele>
        <time>2010-12-10T04:39:35</time>
        <extensions><speed>6.90</speed></extensions>
      </trkpt>
      <trkpt lat="48.911480000" lon="7.523840000">
        <ele>196.0</ele>
        <time>2010-12-10T04:39:50</time>
        <extensions><speed>6.89</speed></extensions>
      </trkpt>
      <trkpt lat="48.909081000" lon="7.525150000">
        <ele>199.0</ele>
        <time>2010-12-10T04:40:32</time>
        <extensions><speed>8.32</speed></extensions>
      </trkpt>
      <trkpt lat="48.907810000" lon="7.526460000">
        <ele>192.0</ele>
        <time>2010-12-10T04:40:52</time>
        <extensions><speed>8.32</speed></extensions>
      </trkpt>
      <trkpt lat="48.907249000" lon="7.527500000">
        <ele>189.0</ele>
        <time>2010-12-10T04:41:04</time>
        <extensions><speed>7.25</speed></extensions>
      </trkpt>
      <trkpt lat="48.905560000" lon="7.528160000">
        <ele>190.0</ele>
        <time>2010-12-10T04:41:31</time>
        <extensions><speed>7.24</speed></extensions>
      </trkpt>
      <trkpt lat="48.905830000" lon="7.529350000">
        <ele>191.0</ele>
        <time>2010-12-10T04:41:43</time>
        <extensions><speed>7.67</speed></extensions>
      </trkpt>
      <trkpt lat="48.904800000" lon="7.529860000">
        <ele>191.0</ele>
        <time>2010-12-10T04:41:59</time>
        <extensions><speed>7.67</speed></extensions>
      </trkpt>
      <trkpt lat="48.903950000" lon="7.529680000">
        <ele>192.0</ele>
        <time>2010-12-10T04:42:12</time>
        <extensions><speed>8.32</speed></extensions>
      </trkpt>
      <trkpt lat="48.903431000" lon="7.529880000">
        <ele>191.0</ele>
        <time>2010-12-10T04:42:19</time>
        <extensions><speed>8.32</speed></extensions>
      </trkpt>
      <trkpt lat="48.900791000" lon="7.533440000">
        <ele>189.0</ele>
        <time>2010-12-10T04:43:06</time>
        <extensions><speed>8.32</speed></extensions>
      </trkpt>
      <trkpt lat="48.899380000" lon="7.535000000">
        <ele>189.0</ele>
        <time>2010-12-10T04:43:29</time>
        <extensions><speed>8.32</speed></extensions>
      </trkpt>
      <trkpt lat="48.897949000" lon="7.535470000">
        <ele>187.0</ele>
        <time>2010-12-10T04:43:49</time>
        <extensions><speed>8.32</speed></extensions>
      </trkpt>
      <trkpt lat="48.896969000" lon="7.536600000">
        <ele>187.0</ele>
        <time>2010-12-10T04:44:05</time>
        <extensions><speed>8.32</speed></extensions>
      </trkpt>
      <trkpt lat="48.895840000" lon="7.537050000">
        <ele>186.0</ele>
        <time>2010-12-10T04:44:21</time>
        <extensions><speed>8.32</speed></extensions>
      </trkpt>
      <trkpt lat="48.894520000" lon="7.538780000">
        <ele>186.0</ele>
        <time>2010-12-10T04:44:44</time>
        <extensions><speed>8.32</speed></extensions>
      </trkpt>
      <trkpt lat="48.892941000" lon="7.540050000">
        <ele>186.0</ele>
        <time>2010-12-10T04:45:08</time>
        <extensions><speed>6.39</speed></extensions>
      </trkpt>
      <trkpt lat="48.891762000" lon="7.541630000">
        <ele>188.0</ele>
        <time>2010-12-10T04:45:35</time>
        <extensions><speed>6.39</speed></extensions>
      </trkpt>
      <trkpt lat="48.890999000" lon="7.543420000">
        <ele>191.0</ele>
        <time>2010-12-10T04:46:00</time>
        <extensions><speed>8.32</speed></extensions>
      </trkpt>
      <trkpt lat="48.890751000" lon="7.544580000">
        <ele>188.0</ele>
        <time>2010-12-10T04:46:10</time>
        <extensions><speed>8.32</speed></extensions>
      </trkpt>
      <trkpt lat="48.890011000" lon="7.545830000">
        <ele>184.0</ele>
        <time>2010-12-10T04:46:25</time>
        <extensions><speed>8.32</speed></extensions>
      </trkpt>
      <trkpt lat="48.887371000" lon="7.549800000">
        <ele>183.0</ele>
        <time>2010-12-10T04:47:15</time>
        <extensions><speed>7.39</speed></extensions>
      </trkpt>
      <trkpt lat="48.886089000" lon="7.551160000">
        <ele>184.0</ele>
        <time>2010-12-10T04:47:38</time>
        <extensions><speed>7.39</speed></extensions>
      </trkpt>
      <trkpt lat="48.884972000" lon="7.552170000">
        <ele>185.0</ele>
        <time>2010-12-10T04:47:58</time>
        <extensions><speed>7.73</speed></extensions>
      </trkpt>
      <trkpt lat="48.882549000" lon="7.553450000">
        <ele>186.0</ele>
        <time>2010-12-10T04:48:36</time>
        <extensions><speed>6.67</speed></extensions>
      </trkpt>
      <trkpt lat="48.882141000" lon="7.552100000">
        <ele>187.0</ele>
        <time>2010-12-10T04:48:52</time>
        <extensions><speed>6.66</speed></extensions>
      </trkpt>
      <trkpt lat="48.879829000" lon="7.553200000">
        <ele>183.0</ele>
        <time>2010-12-10T04:49:28</time>
        <extensions><speed>8.32</speed></extensions>
      </trkpt>
      <trkpt lat="48.878479000" lon="7.552550000">
        <ele>181.0</ele>
        <time>2010-12-10T04:49:47</time>
        <extensions><speed>8.32</speed></extensions>
      </trkpt>
      <trkpt lat="48.875271000" lon="7.552790000">
        <ele>182.0</ele>
        <time>2010-12-10T04:50:33</time>
        <extensions><speed>7.04</speed></extensions>
      </trkpt>
      <trkpt lat="48.873379000" lon="7.553680000">
        <ele>184.0</ele>
        <time>2010-12-10T04:51:04</time>
        <extensions><speed>8.32</speed></extensions>
      </trkpt>
      <trkpt lat="48.871819000" lon="7.555140000">
        <ele>183.0</ele>
        <time>2010-12-10T04:51:29</time>
        <extensions><speed>8.31</speed></extensions>
      </trkpt>
      <trkpt lat="48.871052000" lon="7.556640000">
        <ele>181.0</ele>
        <time>2010-12-10T04:51:45</time>
        <extensions><speed>8.32</speed></extensions>
      </trkpt>
      <trkpt lat="48.869759000" lon="7.558550000">
        <ele>178.0</ele>
        <time>2010-12-10T04:52:10</time>
        <extensions><speed>8.32</speed></extensions>
      </trkpt>
      <trkpt lat="48.867668000" lon="7.560880000">
        <ele>177.0</ele>
        <time>2010-12-10T04:52:48</time>
        <extensions><speed>6.56</speed></extensions>
      </trkpt>
      <trkpt lat="48.864220000" lon="7.565540000">
        <ele>178.0</ele>
        <time>2010-12-10T04:53:58</time>
        <extensions><speed>8.31</speed></extensions>
      </trkpt>
      <trkpt lat="48.863861000" lon="7.566210000">
        <ele>178.0</ele>
        <time>2010-12-10T04:54:06</time>
        <extensions><speed>7.64</speed></extensions>
      </trkpt>
      <trkpt lat="48.862808000" lon="7.569330000">
        <ele>179.0</ele>
        <time>2010-12-10T04:54:39</time>
        <extensions><speed>7.11</speed></extensions>
      </trkpt>
      <trkpt lat="48.861019000" lon="7.572260000">
        <ele>179.0</ele>
        <time>2010-12-10T04:55:19</time>
        <extensions><speed>8.32</speed></extensions>
      </trkpt>
      <trkpt lat="48.860741000" lon="7.576010000">
        <ele>177.0</ele>
        <time>2010-12-10T04:55:53</time>
        <extensions><speed>7.09</speed></extensions>
      </trkpt>
      <trkpt lat="48.860069000" lon="7.578410000">
        <ele>179.0</ele>
        <time>2010-12-10T04:56:20</time>
        <extensions><speed>8.32</speed></extensions>
      </trkpt>
      <trkpt lat="48.859341000" lon="7.580320000">
        <ele>175.0</ele>
        <time>2010-12-10T04:56:39</time>
        <extensions><speed>8.31</speed></extensions>
      </trkpt>
      <trkpt lat="48.859249000" lon="7.580990000">
        <ele>174.0</ele>
        <time>2010-12-10T04:56:45</time>
        <extensions><speed>8.32</speed></extensions>
      </trkpt>
      <trkpt lat="48.860470000" lon="7.582520000">
        <ele>173.0</ele>
        <time>2010-12-10T04:57:06</time>
        <extensions><speed>8.31</speed></extensions>
      </trkpt>
      <trkpt lat="48.860519000" lon="7.583270000">
        <ele>173.0</ele>
        <time>2010-12-10T04:57:15</time>
        <extensions><speed>4.87</speed></extensions>
      </trkpt>
      <trkpt lat="48.862171000" lon="7.586680000">
        <ele>186.0</ele>
        <time>2010-12-10T04:58:22</time>
        <extensions><speed>4.35</speed></extensions>
      </trkpt>
      <trkpt lat="48.862881000" lon="7.589860000">
        <ele>201.0</ele>
        <time>2010-12-10T04:59:29</time>
        <extensions><speed>2.90</speed></extensions>
      </trkpt>
      <trkpt lat="48.862911000" lon="7.591340000">
        <ele>212.0</ele>
        <time>2010-12-10T05:00:06</time>
        <extensions><speed>5.62</speed></extensions>
      </trkpt>
      <trkpt lat="48.862080000" lon="7.594010000">
        <ele>217.0</ele>
        <time>2010-12-10T05:00:45</time>
        <extensions><speed>7.62</speed></extensions>
      </trkpt>
      <trkpt lat="48.862350000" lon="7.595860000">
        <ele>217.0</ele>
        <time>2010-12-10T05:01:03</time>
        <extensions><speed>7.62</speed></extensions>
      </trkpt>
      <trkpt lat="48.862129000" lon="7.598450000">
        <ele>216.0</ele>
        <time>2010-12-10T05:01:27</time>
        <extensions><speed>8.32</speed></extensions>
      </trkpt>
      <trkpt lat="48.862221000" lon="7.599550000">
        <ele>216.0</ele>
        <time>2010-12-10T05:01:36</time>
        <extensions><speed>8.33</speed></extensions>
      </trkpt>
      <trkpt lat="48.859669000" lon="7.600700000">
        <ele>204.0</ele>
        <time>2010-12-10T05:02:12</time>
        <extensions><speed>8.32</speed></extensions>
      </trkpt>
      <trkpt lat="48.858170000" lon="7.600780000">
        <ele>203.0</ele>
        <time>2010-12-10T05:02:32</time>
        <extensions><speed>8.31</speed></extensions>
      </trkpt>
      <trkpt lat="48.856972000" lon="7.601100000">
        <ele>198.0</ele>
        <time>2010-12-10T05:02:48</time>
        <extensions><speed>8.32</speed></extensions>
      </trkpt>
      <trkpt lat="48.854271000" lon="7.603030000">
        <ele>180.0</ele>
        <time>2010-12-10T05:03:28</time>
        <extensions><speed>8.32</speed></extensions>
      </trkpt>
      <trkpt lat="48.851341000" lon="7.604580000">
        <ele>171.0</ele>
        <time>2010-12-10T05:04:15</time>
        <extensions><speed>4.97</speed></extensions>
      </trkpt>
      <trkpt lat="48.850590000" lon="7.605320000">
        <ele>174.0</ele>
        <time>2010-12-10T05:04:35</time>
        <extensions><speed>4.97</speed></extensions>
      </trkpt>
      <trkpt lat="48.848511000" lon="7.608220000">
        <ele>171.0</ele>
        <time>2010-12-10T05:05:21</time>
        <extensions><speed>8.32</speed></extensions>
      </trkpt>
      <trkpt lat="48.847839000" lon="7.609580000">
        <ele>171.0</ele>
        <time>2010-12-10T05:05:36</time>
        <extensions><speed>8.34</speed></extensions>
      </trkpt>
      <trkpt lat="48.848289000" lon="7.611890000">
        <ele>169.0</ele>
        <time>2010-12-10T05:05:58</time>
        <extensions><speed>8.31</speed></extensions>
      </trkpt>
      <trkpt lat="48.849350000" lon="7.613620000">
        <ele>168.0</ele>
        <time>2010-12-10T05:06:20</time>
        <extensions><speed>7.68</speed></extensions>
      </trkpt>
      <trkpt lat="48.849689000" lon="7.615100000">
        <ele>168.0</ele>
        <time>2010-12-10T05:06:35</time>
        <extensions><speed>7.68</speed></extensions>
      </trkpt>
      <trkpt lat="48.849110000" lon="7.619270000">
        <ele>168.0</ele>
        <time>2010-12-10T05:07:13</time>
        <extensions><speed>8.32</speed></extensions>
      </trkpt>
      <trkpt lat="48.848660000" lon="7.624080000">
        <ele>165.0</ele>
        <time>2010-12-10T05:07:58</time>
        <extensions><speed>6.13</speed></extensions>
      </trkpt>
      <trkpt lat="48.849319000" lon="7.628550000">
        <ele>165.0</ele>
        <time>2010-12-10T05:08:46</time>
        <extensions><speed>8.28</speed></extensions>
      </trkpt>
      <trkpt lat="48.849239000" lon="7.629240000">
        <ele>164.0</ele>
        <time>2010-12-10T05:08:52</time>
        <extensions><speed>6.12</speed></extensions>
      </trkpt>
      <trkpt lat="48.849972000" lon="7.631990000">
        <ele>168.0</ele>
        <time>2010-12-10T05:09:28</time>
        <extensions><speed>8.32</speed></extensions>
      </trkpt>
      <trkpt lat="48.850101000" lon="7.633570000">
        <ele>167.0</ele>
        <time>2010-12-10T05:09:42</time>
        <extensions><speed>8.32</speed></extensions>
      </trkpt>
      <trkpt lat="48.849911000" lon="7.635930000">
        <ele>167.0</ele>
        <time>2010-12-10T05:10:04</time>
        <extensions><speed>7.65</speed></extensions>
      </trkpt>
      <trkpt lat="48.849209000" lon="7.640210000">
        <ele>164.0</ele>
        <time>2010-12-10T05:10:45</time>
        <extensions><speed>8.38</speed></extensions>
      </trkpt>
      <trkpt lat="48.849339000" lon="7.640940000">
        <ele>164.0</ele>
        <time>2010-12-10T05:10:53</time>
        <extensions><speed>6.59</speed></extensions>
      </trkpt>
      <trkpt lat="48.849098000" lon="7.641060000">
        <ele>164.0</ele>
        <time>2010-12-10T05:10:57</time>
        <extensions><speed>6.62</speed></extensions>
      </trkpt>
      <trkpt lat="48.848942000" lon="7.641500000">
        <ele>165.0</ele>
        <time>2010-12-10T05:11:04</time>
        <extensions><speed>6.27</speed></extensions>
      </trkpt>
      <trkpt lat="48.848358000" lon="7.645110000">
        <ele>170.0</ele>
        <time>2010-12-10T05:11:48</time>
        <extensions><speed>7.62</speed></extensions>
      </trkpt>
      <trkpt lat="48.848282000" lon="7.648480000">
        <ele>170.0</ele>
        <time>2010-12-10T05:12:20</time>
        <extensions><speed>8.33</speed></extensions>
      </trkpt>
      <trkpt lat="48.848019000" lon="7.649660000">
        <ele>168.0</ele>
        <time>2010-12-10T05:12:31</time>
        <extensions><speed>8.32</speed></extensions>
      </trkpt>
      <trkpt lat="48.847519000" lon="7.650630000">
        <ele>167.0</ele>
        <time>2010-12-10T05:12:42</time>
        <extensions><speed>8.32</speed></extensions>
      </trkpt>
      <trkpt lat="48.847691000" lon="7.653740000">
        <ele>167.0</ele>
        <time>2010-12-10T05:13:10</time>
        <extensions><speed>6.65</speed></extensions>
      </trkpt>
      <trkpt lat="48.847591000" lon="7.658200000">
        <ele>170.0</ele>
        <time>2010-12-10T05:13:57</time>
        <extensions><speed>7.59</speed></extensions>
      </trkpt>
      <trkpt lat="48.848129000" lon="7.659030000">
        <ele>170.0</ele>
        <time>2010-12-10T05:14:08</time>
        <extensions><speed>8.31</speed></extensions>
      </trkpt>
      <trkpt lat="48.848480000" lon="7.663380000">
        <ele>168.0</ele>
        <time>2010-12-10T05:14:49</time>
        <extensions><speed>7.21</speed></extensions>
      </trkpt>
      <trkpt lat="48.848461000" lon="7.666260000">
        <ele>170.0</ele>
        <time>2010-12-10T05:15:17</time>
        <extensions><speed>8.32</speed></extensions>
      </trkpt>
      <trkpt lat="48.847931000" lon="7.670520000">
        <ele>168.0</ele>
        <time>2010-12-10T05:15:55</time>
        <extensions><speed>8.31</speed></extensions>
      </trkpt>
      <trkpt lat="48.847149000" lon="7.672700000">
        <ele>167.0</ele>
        <time>2010-12-10T05:16:17</time>
        <extensions><speed>8.32</speed></extensions>
      </trkpt>
      <trkpt lat="48.846649000" lon="7.675390000">
        <ele>166.0</ele>
        <time>2010-12-10T05:16:42</time>
        <extensions><speed>8.32</speed></extensions>
      </trkpt>
      <trkpt lat="48.846260000" lon="7.680580000">
        <ele>164.0</ele>
        <time>2010-12-10T05:17:28</time>
        <extensions><speed>8.33</speed></extensions>
      </trkpt>
      <trkpt lat="48.844391000" lon="7.687530000">
        <ele>165.0</ele>
        <time>2010-12-10T05:18:37</time>
        <extensions><speed>8.32</speed></extensions>
      </trkpt>
      <trkpt lat="48.843929000" lon="7.690100000">
        <ele>162.0</ele>
        <time>2010-12-10T05:19:01</time>
        <extensions><speed>8.32</speed></extensions>
      </trkpt>
      <trkpt lat="48.843739000" lon="7.692960000">
        <ele>160.0</ele>
        <time>2010-12-10T05:19:26</time>
        <extensions><speed>8.32</speed></extensions>
      </trkpt>
      <trkpt lat="48.842861000" lon="7.696820000">
        <ele>159.0</ele>
        <time>2010-12-10T05:20:03</time>
        <extensions><speed>7.32</speed></extensions>
      </trkpt>
      <trkpt lat="48.840279000" lon="7.704800000">
        <ele>160.0</ele>
        <time>2010-12-10T05:21:27</time>
        <extensions><speed>8.32</speed></extensions>
      </trkpt>
      <trkpt lat="48.840031000" lon="7.706430000">
        <ele>156.0</ele>
        <time>2010-12-10T05:21:42</time>
        <extensions><speed>8.30</speed></extensions>
      </trkpt>
      <trkpt lat="48.840099000" lon="7.707330000">
        <ele>156.0</ele>
        <time>2010-12-10T05:21:50</time>
        <extensions><speed>7.59</speed></extensions>
      </trkpt>
      <trkpt lat="48.839699000" lon="7.708720000">
        <ele>156.0</ele>
        <time>2010-12-10T05:22:05</time>
        <extensions><speed>7.60</speed></extensions>
      </trkpt>
      <trkpt lat="48.838760000" lon="7.715640000">
        <ele>156.0</ele>
        <time>2010-12-10T05:23:10</time>
        <extensions><speed>6.18</speed></extensions>
      </trkpt>
      <trkpt lat="48.837872000" lon="7.720300000">
        <ele>160.0</ele>
        <time>2010-12-10T05:24:05</time>
        <extensions><speed>8.32</speed></extensions>
      </trkpt>
      <trkpt lat="48.835911000" lon="7.728760000">
        <ele>157.0</ele>
        <time>2010-12-10T05:25:29</time>
        <extensions><speed>8.32</speed></extensions>
      </trkpt>
      <trkpt lat="48.836060000" lon="7.730830000">
        <ele>156.0</ele>
        <time>2010-12-10T05:25:47</time>
        <extensions><speed>7.91</speed></extensions>
      </trkpt>
      <trkpt lat="48.837059000" lon="7.737960000">
        <ele>155.0</ele>
        <time>2010-12-10T05:26:54</time>
        <extensions><speed>8.32</speed></extensions>
      </trkpt>
      <trkpt lat="48.836590000" lon="7.738380000">
        <ele>155.0</ele>
        <time>2010-12-10T05:27:01</time>
        <extensions><speed>8.32</speed></extensions>
      </trkpt>
      <trkpt lat="48.835510000" lon="7.738540000">
        <ele>154.0</ele>
        <time>2010-12-10T05:27:15</time>
        <extensions><speed>8.32</speed></extensions>
      </trkpt>
      <trkpt lat="48.832390000" lon="7.737840000">
        <ele>151.0</ele>
        <time>2010-12-10T05:27:58</time>
        <extensions><speed>8.31</speed></extensions>
      </trkpt>
      <trkpt lat="48.831791000" lon="7.737970000">
        <ele>151.0</ele>
        <time>2010-12-10T05:28:06</time>
        <extensions><speed>8.32</speed></extensions>
      </trkpt>
      <trkpt lat="48.830078000" lon="7.739220000">
        <ele>150.0</ele>
        <time>2010-12-10T05:28:31</time>
        <extensions><speed>8.32</speed></extensions>
      </trkpt>
      <trkpt lat="48.830181000" lon="7.740000000">
        <ele>150.0</ele>
        <time>2010-12-10T05:28:38</time>
        <extensions><speed>8.31</speed></extensions>
      </trkpt>
      <trkpt lat="48.830318000" lon="7.739800000">
        <ele>150.0</ele>
        <time>2010-12-10T05:28:42</time>
        <extensions><speed>7.57</speed></extensions>
      </trkpt>
      <trkpt lat="48.829529000" lon="7.741010000">
        <ele>150.0</ele>
        <time>2010-12-10T05:28:58</time>
        <extensions><speed>7.57</speed></extensions>
      </trkpt>
      <trkpt lat="48.829231000" lon="7.742190000">
        <ele>150.0</ele>
        <time>2010-12-10T05:29:10</time>
        <extensions><speed>8.32</speed></extensions>
      </trkpt>
      <trkpt lat="48.828098000" lon="7.741640000">
        <ele>148.0</ele>
        <time>2010-12-10T05:29:26</time>
        <extensions><speed>8.32</speed></extensions>
      </trkpt>
      <trkpt lat="48.825771000" lon="7.741290000">
        <ele>147.0</ele>
        <time>2010-12-10T05:29:58</time>
        <extensions><speed>8.31</speed></extensions>
      </trkpt>
      <trkpt lat="48.825298000" lon="7.740910000">
        <ele>146.0</ele>
        <time>2010-12-10T05:30:05</time>
        <extensions><speed>8.33</speed></extensions>
      </trkpt>
      <trkpt lat="48.825001000" lon="7.741100000">
        <ele>145.0</ele>
        <time>2010-12-10T05:30:10</time>
        <extensions><speed>8.29</speed></extensions>
      </trkpt>
      <trkpt lat="48.823238000" lon="7.741090000">
        <ele>144.0</ele>
        <time>2010-12-10T05:30:34</time>
        <extensions><speed>8.29</speed></extensions>
      </trkpt>
      <trkpt lat="48.824471000" lon="7.741130000">
        <ele>144.0</ele>
        <time>2010-12-10T05:30:52</time>
        <extensions><speed>8.31</speed></extensions>
      </trkpt>
      <trkpt lat="48.823681000" lon="7.740980000">
        <ele>144.0</ele>
        <time>2010-12-10T05:31:03</time>
        <extensions><speed>8.33</speed></extensions>
      </trkpt>
      <trkpt lat="48.822922000" lon="7.741200000">
        <ele>143.0</ele>
        <time>2010-12-10T05:31:13</time>
        <extensions><speed>8.30</speed></extensions>
      </trkpt>
      <trkpt lat="48.822151000" lon="7.743490000">
        <ele>142.0</ele>
        <time>2010-12-10T05:31:36</time>
        <extensions><speed>7.41</speed></extensions>
      </trkpt>
      <trkpt lat="48.821072000" lon="7.750350000">
        <ele>144.0</ele>
        <time>2010-12-10T05:32:46</time>
        <extensions><speed>8.32</speed></extensions>
      </trkpt>
      <trkpt lat="48.818760000" lon="7.761220000">
        <ele>142.0</ele>
        <time>2010-12-10T05:34:29</time>
        <extensions><speed>7.81</speed></extensions>
      </trkpt>
      <trkpt lat="48.818340000" lon="7.766100000">
        <ele>142.0</ele>
        <time>2010-12-10T05:35:14</time>
        <extensions><speed>8.30</speed></extensions>
      </trkpt>
      <trkpt lat="48.816910000" lon="7.766770000">
        <ele>142.0</ele>
        <time>2010-12-10T05:35:36</time>
        <extensions><speed>7.67</speed></extensions>
      </trkpt>
      <trkpt lat="48.816200000" lon="7.768410000">
        <ele>142.0</ele>
        <time>2010-12-10T05:35:55</time>
        <extensions><speed>7.66</speed></extensions>
      </trkpt>
      <trkpt lat="48.814991000" lon="7.768580000">
        <ele>143.0</ele>
        <time>2010-12-10T05:36:12</time>
        <extensions><speed>7.79</speed></extensions>
      </trkpt>
      <trkpt lat="48.814442000" lon="7.768380000">
        <ele>143.0</ele>
        <time>2010-12-10T05:36:21</time>
        <extensions><speed>7.75</speed></extensions>
      </trkpt>
      <trkpt lat="48.813141000" lon="7.768720000">
        <ele>144.0</ele>
        <time>2010-12-10T05:36:40</time>
        <extensions><speed>5.68</speed></extensions>
      </trkpt>
      <trkpt lat="48.811588000" lon="7.768680000">
        <ele>148.0</ele>
        <time>2010-12-10T05:37:10</time>
        <extensions><speed>5.68</speed></extensions>
      </trkpt>
      <trkpt lat="48.810661000" lon="7.768920000">
        <ele>150.0</ele>
        <time>2010-12-10T05:37:29</time>
        <extensions><speed>5.99</speed></extensions>
      </trkpt>
      <trkpt lat="48.809341000" lon="7.774460000">
        <ele>155.0</ele>
        <time>2010-12-10T05:38:33</time>
        <extensions><speed>8.32</speed></extensions>
      </trkpt>
      <trkpt lat="48.808182000" lon="7.774010000">
        <ele>155.0</ele>
        <time>2010-12-10T05:38:49</time>
        <extensions><speed>8.36</speed></extensions>
      </trkpt>
      <trkpt lat="48.808029000" lon="7.772750000">
        <ele>155.0</ele>
        <time>2010-12-10T05:39:02</time>
        <extensions><speed>7.57</speed></extensions>
      </trkpt>
      <trkpt lat="48.806061000" lon="7.774080000">
        <ele>154.0</ele>
        <time>2010-12-10T05:39:32</time>
        <extensions><speed>8.32</speed></extensions>
      </trkpt>
      <trkpt lat="48.806919000" lon="7.775640000">
        <ele>153.0</ele>
        <time>2010-12-10T05:39:50</time>
        <extensions><speed>6.79</speed></extensions>
      </trkpt>
      <trkpt lat="48.806412000" lon="7.776430000">
        <ele>153.0</ele>
        <time>2010-12-10T05:40:02</time>
        <extensions><speed>6.79</speed></extensions>
      </trkpt>
      <trkpt lat="48.805721000" lon="7.778180000">
        <ele>155.0</ele>
        <time>2010-12-10T05:40:23</time>
        <extensions><speed>8.32</speed></extensions>
      </trkpt>
      <trkpt lat="48.803982000" lon="7.784360000">
        <ele>152.0</ele>
        <time>2010-12-10T05:41:23</time>
        <extensions><speed>8.31</speed></extensions>
      </trkpt>
    </trkseg>
  </trk>
</gpx>
